M I D A S
Marine Information and Data Acquisition System
Tripno 1107 of the Zeeleeuw from 2006-06-01 04:00:15 to 2006-06-01 19:43:05
Back to CruiseResearch ActivitiesStationsMapUnderway DataData graphs

EquipmentUnitsComment
TimeDGPSUTC
LatitudeDGPSDM.mWGS84
LongitudeDGPSDM.mWGS84
TemperatureSBE03/SBE38deg celciusITS90
ConductivitySBE21S/mITS90
SalinitySBE21 Practical Salinity Units
ChlorophylAChelsea fluorimeterg/lCalibrated in Aceton
Missing or incorrect values are displayed as -999
Sea surface data collected by the RV Zeeleeuw from 2006-06-01 03:57:29 to 2006-06-01 19:43:58
                                                                                    Next 1000 lines
Time Latitude Longitude Temperature Conductivity Salinity ChlorophylA
2006-06-01 03:57:38 51°13.602 2°56.098 18.7556 0.004981 0.030736 6.398853
2006-06-01 03:57:43 51°13.602 2°56.096 18.8506 0.004981 0.030736 6.398853
2006-06-01 03:57:48 51°13.602 2°56.094 18.8552 0.004981 0.030736 6.398853
2006-06-01 03:57:53 51°13.603 2°56.092 18.8724 0.004981 0.030736 6.398853
2006-06-01 03:57:58 51°13.604 2°56.089 18.8412 0.004878 0.030244 6.432563
2006-06-01 03:58:04 51°13.605 2°56.085 18.8657 0.004878 0.030244 6.398853
2006-06-01 03:58:09 51°13.606 2°56.081 18.8573 0.004981 0.030736 6.432563
2006-06-01 03:58:14 51°13.607 2°56.077 18.8642 0.004981 0.030736 6.398853
2006-06-01 03:58:19 51°13.608 2°56.073 18.8599 0.004981 0.030736 6.398853
2006-06-01 03:58:24 51°13.609 2°56.068 18.8629 0.004981 0.030736 6.432563
2006-06-01 03:58:29 51°13.61 2°56.063 18.8578 0.004981 0.030736 6.365144
2006-06-01 03:58:34 51°13.611 2°56.057 18.8559 0.004981 0.030736 6.398853
2006-06-01 03:58:39 51°13.612 2°56.051 18.8398 0.004981 0.030736 6.398853
2006-06-01 03:58:44 51°13.613 2°56.045 18.8648 0.004878 0.030244 6.432563
2006-06-01 03:58:49 51°13.614 2°56.039 18.8646 0.004878 0.030244 6.432563
2006-06-01 03:58:54 51°13.615 2°56.031 18.8735 0.004878 0.030244 6.432563
2006-06-01 03:58:59 51°13.616 2°56.024 18.8729 0.004981 0.030736 6.398853
2006-06-01 03:59:04 51°13.618 2°56.016 18.8772 0.004981 0.030736 6.432563
2006-06-01 03:59:09 51°13.619 2°56.007 18.8742 0.004981 0.030736 6.398853
2006-06-01 03:59:14 51°13.62 2°55.999 18.8784 0.004981 0.030736 6.432563
2006-06-01 03:59:19 51°13.622 2°55.991 18.9007 0.004981 0.030736 6.432563
2006-06-01 03:59:24 51°13.624 2°55.982 18.8976 0.004981 0.030736 6.432563
2006-06-01 03:59:29 51°13.626 2°55.974 18.8849 0.004981 0.030736 6.432563
2006-06-01 03:59:34 51°13.628 2°55.966 18.8811 0.004878 0.030244 6.432563
2006-06-01 03:59:39 51°13.631 2°55.958 18.8714 0.004981 0.030736 6.398853
2006-06-01 03:59:44 51°13.633 2°55.95 18.8676 0.004981 0.030736 6.398853
2006-06-01 03:59:49 51°13.636 2°55.943 18.8779 0.004981 0.030736 6.398853
2006-06-01 03:59:54 51°13.639 2°55.935 18.8814 0.004981 0.030736 6.398853
2006-06-01 03:59:59 51°13.642 2°55.928 18.8749 0.004981 0.030736 6.398853
2006-06-01 04:00:04 51°13.645 2°55.92 18.869 0.004878 0.030244 6.398853
2006-06-01 04:00:09 51°13.649 2°55.913 18.8878 0.004981 0.030736 6.398853
2006-06-01 04:00:14 51°13.652 2°55.906 18.8782 0.004981 0.030736 6.398853
2006-06-01 04:00:19 51°13.656 2°55.899 18.8719 0.004981 0.030736 6.398853
2006-06-01 04:00:24 51°13.66 2°55.892 18.8677 0.004981 0.030736 6.398853
2006-06-01 04:00:29 51°13.664 2°55.885 18.8829 0.004981 0.030736 6.398853
2006-06-01 04:00:34 51°13.668 2°55.878 18.8821 0.004981 0.030736 6.398853
2006-06-01 04:00:39 51°13.672 2°55.871 18.885 0.004981 0.030736 6.398853
2006-06-01 04:00:44 51°13.677 2°55.864 18.8812 0.004981 0.030736 6.398853
2006-06-01 04:00:49 51°13.681 2°55.857 18.8803 0.004981 0.030736 6.398853
2006-06-01 04:00:54 51°13.685 2°55.85 18.8803 0.004981 0.030736 6.432563
2006-06-01 04:00:59 51°13.689 2°55.844 18.8824 0.004981 0.030736 6.432563
2006-06-01 04:01:04 51°13.693 2°55.837 18.8795 0.004981 0.030736 6.398853
2006-06-01 04:01:09 51°13.697 2°55.831 18.8786 0.004981 0.030736 6.398853
2006-06-01 04:01:14 51°13.701 2°55.824 18.8745 0.004981 0.030736 6.398853
2006-06-01 04:01:19 51°13.704 2°55.817 18.8765 0.004981 0.030736 6.398853
2006-06-01 04:01:24 51°13.708 2°55.811 18.8734 0.004981 0.030736 6.398853
2006-06-01 04:01:29 51°13.712 2°55.804 18.8859 0.004878 0.030244 6.398853
2006-06-01 04:01:34 51°13.715 2°55.797 18.8687 0.004981 0.030736 6.398853
2006-06-01 04:01:40 51°13.72 2°55.788 18.8707 0.004981 0.030736 6.432563
2006-06-01 04:01:44 51°13.722 2°55.782 18.8849 0.004981 0.030736 6.398853
2006-06-01 04:01:49 51°13.726 2°55.775 18.8838 0.004981 0.030736 6.398853
2006-06-01 04:01:54 51°13.729 2°55.767 18.873 0.004878 0.030244 6.398853
2006-06-01 04:02:00 51°13.734 2°55.758 18.9202 0.004981 0.030736 6.398853
2006-06-01 04:02:04 51°13.736 2°55.752 18.899 0.004981 0.030736 6.432563
2006-06-01 04:02:09 51°13.739 2°55.745 18.9078 0.004981 0.030736 6.432563
2006-06-01 04:02:13 51°13.741 2°55.739 18.8725 0.004981 0.030736 6.432563
2006-06-01 04:02:19 51°13.744 2°55.731 18.8956 0.004981 0.030736 6.432563
2006-06-01 04:02:23 51°13.746 2°55.726 18.8715 0.004981 0.030736 6.432563
2006-06-01 04:02:28 51°13.747 2°55.719 18.8833 0.004878 0.030245 6.398853
2006-06-01 04:02:33 51°13.749 2°55.713 18.8577 0.004981 0.030736 6.398853
2006-06-01 04:02:38 51°13.751 2°55.708 18.8902 0.004981 0.030736 6.432563
2006-06-01 04:02:43 51°13.752 2°55.704 18.9226 0.004981 0.030736 6.398853
2006-06-01 04:02:49 51°13.753 2°55.701 18.8574 0.004981 0.030736 6.398853
2006-06-01 04:02:54 51°13.753 2°55.7 18.8848 0.004878 0.030245 6.432563
2006-06-01 04:02:57 51°13.753 2°55.7 18.8952 0.004981 0.030736 6.398853
2006-06-01 04:03:03 51°13.753 2°55.7 18.9227 0.004981 0.030736 6.398853
2006-06-01 04:03:09 51°13.753 2°55.702 18.8735 0.004981 0.030736 6.432563
2006-06-01 04:03:13 51°13.753 2°55.704 18.8381 0.004981 0.030736 6.398853
2006-06-01 04:03:17 51°13.753 2°55.706 18.7859 0.004981 0.030736 6.398853
2006-06-01 04:03:23 51°13.753 2°55.708 18.8106 0.004981 0.030737 6.398853
2006-06-01 04:03:29 51°13.753 2°55.709 18.8735 0.004981 0.030737 6.398853
2006-06-01 04:03:33 51°13.753 2°55.709 18.8152 0.004981 0.030737 6.432563
2006-06-01 04:03:39 51°13.753 2°55.708 18.8407 0.004981 0.030737 6.365144
2006-06-01 04:03:43 51°13.752 2°55.707 18.8589 0.004981 0.030737 6.432563
2006-06-01 04:03:48 51°13.751 2°55.705 18.8993 0.004981 0.030737 6.432563
2006-06-01 04:03:53 51°13.751 2°55.702 18.8837 0.004878 0.030245 6.398853
2006-06-01 04:03:59 51°13.75 2°55.7 18.8872 0.004878 0.030245 6.398853
2006-06-01 04:04:03 51°13.749 2°55.698 18.8574 0.004981 0.030737 6.398853
2006-06-01 04:04:09 51°13.749 2°55.697 18.9033 0.004981 0.030737 6.398853
2006-06-01 04:04:14 51°13.748 2°55.696 18.8835 0.004981 0.030737 6.398853
2006-06-01 04:04:19 51°13.748 2°55.697 18.8878 0.004981 0.030737 6.398853
2006-06-01 04:04:24 51°13.748 2°55.699 18.8711 0.004981 0.030737 6.432563
2006-06-01 04:04:29 51°13.749 2°55.701 18.9033 0.004878 0.030245 6.432563
2006-06-01 04:04:32 51°13.749 2°55.702 18.9074 0.004981 0.030737 6.398853
2006-06-01 04:04:38 51°13.75 2°55.706 18.7934 0.004981 0.030737 6.365144
2006-06-01 04:04:43 51°13.751 2°55.709 18.7019 0.004981 0.030737 6.432563
2006-06-01 04:04:49 51°13.753 2°55.711 18.7015 0.004981 0.030737 6.432563
2006-06-01 04:04:53 51°13.753 2°55.713 18.7996 0.004981 0.030737 6.432563
2006-06-01 04:04:58 51°13.753 2°55.713 18.7407 0.004981 0.030737 6.432563
2006-06-01 04:05:03 51°13.753 2°55.714 18.7957 0.004878 0.030245 6.398853
2006-06-01 04:05:07 51°13.752 2°55.713 18.7804 0.004981 0.030737 6.432563
2006-06-01 04:05:13 51°13.75 2°55.712 18.8052 0.004981 0.030737 6.432563
2006-06-01 04:05:18 51°13.748 2°55.71 18.8169 0.004981 0.030737 6.432563
2006-06-01 04:05:24 51°13.745 2°55.708 18.8458 0.004981 0.030737 6.365144
2006-06-01 04:05:29 51°13.742 2°55.706 18.8325 0.004981 0.030737 6.398853
2006-06-01 04:05:34 51°13.739 2°55.704 16.6136 0.004981 0.030737 6.432563
2006-06-01 04:05:39 51°13.737 2°55.703 14.8594 0.004981 0.030738 6.398853
2006-06-01 04:05:44 51°13.735 2°55.701 14.2416 0.004981 0.030761 6.398853
2006-06-01 04:05:49 51°13.734 2°55.7 13.96 0.004981 0.030761 6.398853
2006-06-01 04:05:53 51°13.733 2°55.7 13.7801 0.004878 0.030268 6.398853
2006-06-01 04:05:59 51°13.733 2°55.701 13.6742 3.517147 24.573646 13.005896
2006-06-01 04:06:04 51°13.734 2°55.702 13.5858 3.636292 26.097219 12.365418
2006-06-01 04:06:09 51°13.734 2°55.702 13.4847 3.38595 24.970951 13.747503
2006-06-01 04:06:13 51°13.735 2°55.703 13.4165 3.084332 23.447904 13.241862
2006-06-01 04:06:19 51°13.737 2°55.704 13.3628 3.084332 23.447904 13.241862
2006-06-01 04:06:23 51°13.739 2°55.705 13.3405 2.707964 20.757427 12.196871
2006-06-01 04:06:28 51°13.741 2°55.705 13.3366 3.125714 24.672699 11.859777
2006-06-01 04:06:33 51°13.744 2°55.706 13.3099 3.106035 24.805768 11.69123
2006-06-01 04:06:38 51°13.747 2°55.705 13.3031 3.091511 24.82863 11.488973
2006-06-01 04:06:42 51°13.75 2°55.705 13.2866 3.084566 24.878898 11.421554
2006-06-01 04:06:48 51°13.754 2°55.703 13.2523 3.084566 24.878898 11.421554
2006-06-01 04:06:53 51°13.758 2°55.702 13.2523 3.074041 24.875341 11.286717
2006-06-01 04:06:59 51°13.763 2°55.698 13.2561 3.060886 24.8189 11.286717
2006-06-01 04:07:03 51°13.767 2°55.696 13.2312 3.029627 24.57784 11.151879
2006-06-01 04:07:08 51°13.772 2°55.692 13.216 2.983425 24.195435 11.219298
2006-06-01 04:07:13 51°13.777 2°55.687 13.2029 2.950171 23.921406 11.185589
2006-06-01 04:07:17 51°13.781 2°55.683 13.1818 2.950171 23.921406 11.185589
2006-06-01 04:07:23 51°13.789 2°55.676 13.2048 2.935544 23.806066 11.185589
2006-06-01 04:07:29 51°13.797 2°55.67 13.3067 2.934808 23.826354 11.185589
2006-06-01 04:07:33 51°13.802 2°55.665 13.2322 2.934913 23.836908 11.151879
2006-06-01 04:07:38 51°13.809 2°55.659 13.2319 2.95154 24.001747 11.151879
2006-06-01 04:07:43 51°13.817 2°55.653 13.201 2.955855 24.052561 11.185589
2006-06-01 04:07:47 51°13.823 2°55.649 13.2505 2.955855 24.052561 11.185589
2006-06-01 04:07:53 51°13.833 2°55.641 13.1974 2.974692 24.233331 11.219298
2006-06-01 04:07:57 51°13.84 2°55.637 13.1592 2.958486 24.096117 11.286717
2006-06-01 04:08:03 51°13.85 2°55.629 13.1597 2.895769 23.515831 11.421554
2006-06-01 04:08:08 51°13.859 2°55.623 13.1364 2.853682 23.144413 11.556392
2006-06-01 04:08:13 51°13.868 2°55.617 13.1397 2.838637 23.019883 11.69123
2006-06-01 04:08:19 51°13.878 2°55.609 13.1402 2.838637 23.019883 11.69123
2006-06-01 04:08:23 51°13.886 2°55.604 13.1377 2.843476 23.063091 11.724939
2006-06-01 04:08:28 51°13.895 2°55.597 13.1259 2.842845 23.062582 11.826067
2006-06-01 04:08:33 51°13.904 2°55.59 13.1291 2.87683 23.382393 11.826067
2006-06-01 04:08:39 51°13.915 2°55.582 13.106 2.904504 23.646517 11.893486
2006-06-01 04:08:43 51°13.923 2°55.577 13.1135 2.934494 23.926323 11.893486
2006-06-01 04:08:49 51°13.935 2°55.569 13.1111 2.934494 23.926323 11.893486
2006-06-01 04:08:53 51°13.942 2°55.563 13.1237 2.952488 24.091973 11.960905
2006-06-01 04:08:58 51°13.952 2°55.557 13.1154 2.965011 24.21003 11.960905
2006-06-01 04:09:03 51°13.961 2°55.55 13.1322 2.970589 24.265651 11.960905
2006-06-01 04:09:09 51°13.972 2°55.543 13.1358 2.977535 24.335611 11.927195
2006-06-01 04:09:13 51°13.98 2°55.537 13.1401 2.977324 24.341122 11.859777
2006-06-01 04:09:19 51°13.991 2°55.529 13.1379 2.977324 24.341122 11.859777
2006-06-01 04:09:23 51°13.997 2°55.524 13.1234 2.973641 24.310886 11.826067
2006-06-01 04:09:29 51°14.008 2°55.516 13.1394 2.968379 24.260512 11.69123
2006-06-01 04:09:33 51°14.015 2°55.511 13.1652 2.965433 24.235933 11.623811
2006-06-01 04:09:39 51°14.025 2°55.503 13.1739 2.965222 24.233053 11.556392
2006-06-01 04:09:43 51°14.032 2°55.499 13.1604 2.965222 24.230102 11.488973
2006-06-01 04:09:48 51°14.04 2°55.493 13.1889 2.965222 24.230102 11.488973
2006-06-01 04:09:53 51°14.049 2°55.487 13.1716 2.964696 24.224871 11.455264
2006-06-01 04:09:58 51°14.058 2°55.481 13.1496 2.960592 24.18987 11.387845
2006-06-01 04:10:03 51°14.066 2°55.475 13.1763 2.948069 24.076629 11.320426
2006-06-01 04:10:09 51°14.076 2°55.469 13.1598 2.93281 23.932051 11.253007
2006-06-01 04:10:13 51°14.083 2°55.464 13.1436 2.911765 23.738568 11.185589
2006-06-01 04:10:19 51°14.093 2°55.457 13.1346 2.911765 23.738568 11.185589
2006-06-01 04:10:23 51°14.1 2°55.452 13.1403 2.885669 23.498612 11.219298
2006-06-01 04:10:28 51°14.108 2°55.445 13.1234 2.866204 23.321749 11.185589
2006-06-01 04:10:33 51°14.116 2°55.439 13.1408 2.850421 23.184156 11.185589
2006-06-01 04:10:39 51°14.126 2°55.431 13.1367 2.844003 23.127163 11.151879
2006-06-01 04:10:42 51°14.131 2°55.427 13.1325 2.845371 23.140346 11.151879
2006-06-01 04:10:49 51°14.142 2°55.417 13.1424 2.845371 23.140346 11.151879
2006-06-01 04:10:53 51°14.148 2°55.41 13.1426 2.857892 23.259076 11.11817
2006-06-01 04:10:57 51°14.155 2°55.404 13.1353 2.869887 23.372749 11.08446
2006-06-01 04:11:03 51°14.164 2°55.395 13.1311 2.860312 23.290209 11.08446
2006-06-01 04:11:09 51°14.174 2°55.385 13.144 2.865152 23.334553 11.08446
2006-06-01 04:11:13 51°14.18 2°55.378 13.144 2.860312 23.293044 11.08446
2006-06-01 04:11:19 51°14.19 2°55.368 13.172 2.860312 23.293044 11.08446
2006-06-01 04:11:23 51°14.197 2°55.361 13.158 2.847791 23.180341 11.11817
2006-06-01 04:11:28 51°14.205 2°55.351 13.1875 2.836744 23.080434 11.08446
2006-06-01 04:11:33 51°14.213 2°55.341 13.1719 2.813177 22.869946 11.08446
2006-06-01 04:11:37 51°14.22 2°55.332 13.1651 2.795398 22.711869 11.11817
2006-06-01 04:11:44 51°14.231 2°55.317 13.1663 2.771728 22.498564 11.08446
2006-06-01 04:11:49 51°14.239 2°55.305 13.1657 2.771728 22.498564 11.08446
2006-06-01 04:11:53 51°14.246 2°55.296 13.1646 2.743641 22.242985 11.08446
2006-06-01 04:11:58 51°14.254 2°55.283 13.1651 2.739539 22.202813 11.050751
2006-06-01 04:12:03 51°14.262 2°55.27 13.1847 2.742905 22.229208 11.017042
2006-06-01 04:12:08 51°14.27 2°55.256 13.1815 2.739118 22.193664 10.915913
2006-06-01 04:12:13 51°14.278 2°55.242 13.1584 2.763522 22.412131 10.915913
2006-06-01 04:12:19 51°14.288 2°55.224 13.1399 2.763522 22.412131 10.915913
2006-06-01 04:12:23 51°14.295 2°55.213 13.1365 2.788034 22.630899 10.915913
2006-06-01 04:12:29 51°14.304 2°55.194 13.1158 2.797397 22.714992 10.848494
2006-06-01 04:12:33 51°14.31 2°55.182 13.1053 2.823803 22.953393 10.848494
2006-06-01 04:12:39 51°14.32 2°55.162 13.0851 2.838006 23.078631 10.814785
2006-06-01 04:12:43 51°14.326 2°55.149 13.0779 2.883565 23.486405 10.713657
2006-06-01 04:12:48 51°14.334 2°55.134 13.0713 2.883565 23.486405 10.713657
2006-06-01 04:12:52 51°14.34 2°55.121 13.0622 2.922182 23.841343 10.646238
2006-06-01 04:12:59 51°14.351 2°55.097 13.062 2.967643 24.255844 10.612529
2006-06-01 04:13:03 51°14.357 2°55.085 13.0556 2.991532 24.478163 10.578819
2006-06-01 04:13:08 51°14.366 2°55.069 13.0357 3.020895 24.754831 10.578819
2006-06-01 04:13:13 51°14.374 2°55.053 13.0099 3.049733 25.027363 10.5114
2006-06-01 04:13:18 51°14.382 2°55.037 13.0075 3.049733 25.027363 10.5114
2006-06-01 04:13:23 51°14.391 2°55.021 13.0044 3.065522 25.177028 10.54511
2006-06-01 04:13:29 51°14.402 2°55.002 12.9805 3.086363 25.37427 10.5114
2006-06-01 04:13:32 51°14.408 2°54.993 12.9563 3.09552 25.465167 10.54511
2006-06-01 04:13:39 51°14.422 2°54.971 12.9561 3.100468 25.515295 10.54511
2006-06-01 04:13:42 51°14.429 2°54.962 12.9452 3.104362 25.560572 10.54511
2006-06-01 04:13:49 51°14.443 2°54.941 12.9263 3.104362 25.560572 10.54511
2006-06-01 04:13:53 51°14.451 2°54.928 12.9191 3.122257 25.731702 10.578819
2006-06-01 04:13:58 51°14.462 2°54.911 12.8913 3.1411 25.913826 10.54511
2006-06-01 04:14:03 51°14.472 2°54.894 12.8857 3.166786 26.15709 10.612529
2006-06-01 04:14:09 51°14.485 2°54.874 12.8791 3.193947 26.416971 10.612529
2006-06-01 04:14:13 51°14.493 2°54.86 12.8873 3.208055 26.552474 10.646238
2006-06-01 04:14:19 51°14.506 2°54.839 12.8743 3.208055 26.552474 10.646238
2006-06-01 04:14:23 51°14.515 2°54.825 12.8747 3.252485 26.970939 10.747366
2006-06-01 04:14:28 51°14.526 2°54.808 12.8773 3.289021 27.322477 10.814785
2006-06-01 04:14:34 51°14.538 2°54.789 12.9049 3.335141 27.762147 10.882204
2006-06-01 04:14:39 51°14.548 2°54.772 12.8877 3.373788 28.128369 11.050751
2006-06-01 04:14:43 51°14.557 2°54.757 12.9008 3.438449 28.733941 11.11817
2006-06-01 04:14:49 51°14.569 2°54.736 12.862 3.438449 28.733941 11.11817
2006-06-01 04:14:53 51°14.578 2°54.72 12.8592 3.457828 28.917063 11.185589
2006-06-01 04:14:57 51°14.587 2°54.705 12.8427 3.503538 29.34308 11.354136
2006-06-01 04:15:03 51°14.599 2°54.684 12.8479 3.548409 29.764608 11.455264
2006-06-01 04:15:08 51°14.609 2°54.665 12.8511 3.576639 30.023876 11.522683
2006-06-01 04:15:13 51°14.62 2°54.645 12.8406 3.620565 30.436758 11.522683
2006-06-01 04:15:19 51°14.633 2°54.624 12.8588 3.620565 30.436758 11.522683
2006-06-01 04:15:23 51°14.642 2°54.608 12.8342 3.637421 30.595462 11.488973
2006-06-01 04:15:29 51°14.656 2°54.586 12.8282 3.670079 30.912279 11.421554
2006-06-01 04:15:33 51°14.664 2°54.571 12.8249 3.679876 31.011657 11.253007
2006-06-01 04:15:39 51°14.677 2°54.549 12.8351 3.706741 31.269245 11.151879
2006-06-01 04:15:43 51°14.686 2°54.532 12.8365 3.7079 31.282043 11.08446
2006-06-01 04:15:48 51°14.698 2°54.512 12.8211 3.7079 31.282043 11.08446
2006-06-01 04:15:53 51°14.709 2°54.493 12.8267 3.713273 31.33503 11.050751
2006-06-01 04:15:59 51°14.72 2°54.471 12.8297 3.726759 31.46485 11.050751
2006-06-01 04:16:04 51°14.732 2°54.45 12.8294 3.732975 31.526469 10.983332
2006-06-01 04:16:08 51°14.74 2°54.434 12.825 3.740456 31.599348 10.949623
2006-06-01 04:16:13 51°14.751 2°54.414 12.8297 3.741931 31.611262 10.949623
2006-06-01 04:16:19 51°14.764 2°54.39 12.8332 3.741931 31.611262 10.949623
2006-06-01 04:16:23 51°14.772 2°54.375 12.8335 3.747726 31.667678 10.814785
2006-06-01 04:16:29 51°14.785 2°54.349 12.8502 3.748674 31.677244 10.747366
2006-06-01 04:16:34 51°14.795 2°54.328 12.8431 3.749095 31.684462 10.679947
2006-06-01 04:16:39 51°14.804 2°54.307 12.8408 3.75626 31.752488 10.612529
2006-06-01 04:16:43 51°14.811 2°54.291 12.833 3.769536 31.878695 10.679947
2006-06-01 04:16:49 51°14.822 2°54.263 12.8338 3.769536 31.878695 10.679947
2006-06-01 04:16:53 51°14.829 2°54.246 12.8286 3.766691 31.84865 10.679947
2006-06-01 04:16:57 51°14.836 2°54.228 12.8373 3.773855 31.914104 10.814785
2006-06-01 04:17:03 51°14.846 2°54.202 12.8199 3.772064 31.895281 10.882204
2006-06-01 04:17:08 51°14.854 2°54.177 12.8201 3.7767 31.938909 10.882204
2006-06-01 04:17:13 51°14.859 2°54.154 12.821 3.779018 31.960727 10.882204
2006-06-01 04:17:19 51°14.866 2°54.127 12.8159 3.779018 31.960727 10.882204
2006-06-01 04:17:23 51°14.871 2°54.107 12.8138 3.779229 31.96731 10.814785
2006-06-01 04:17:29 51°14.878 2°54.078 12.8134 3.782601 32.000369 10.747366
2006-06-01 04:17:33 51°14.881 2°54.058 12.8095 3.781863 31.992766 10.679947
2006-06-01 04:17:39 51°14.886 2°54.028 12.8099 3.778281 31.965612 10.578819
2006-06-01 04:17:43 51°14.89 2°54.008 12.7996 3.779861 31.983782 10.578819
2006-06-01 04:17:49 51°14.895 2°53.979 12.808 3.779861 31.983782 10.578819
2006-06-01 04:17:53 51°14.897 2°53.959 12.8019 3.790609 32.087656 10.54511
2006-06-01 04:17:59 51°14.902 2°53.929 12.8043 3.792611 32.111144 10.54511
2006-06-01 04:18:03 51°14.905 2°53.908 12.8007 3.795456 32.140603 10.646238
2006-06-01 04:18:08 51°14.908 2°53.883 12.8084 3.792189 32.111796 10.679947
2006-06-01 04:18:13 51°14.912 2°53.859 12.8049 3.795034 32.137952 10.781076
2006-06-01 04:18:19 51°14.917 2°53.828 12.8218 3.795034 32.137952 10.781076
2006-06-01 04:18:23 51°14.919 2°53.807 12.8069 3.803358 32.219749 10.848494
2006-06-01 04:18:29 51°14.924 2°53.778 12.8094 3.804201 32.227699 11.017042
2006-06-01 04:18:33 51°14.925 2°53.758 12.8295 3.808205 32.263474 11.219298
2006-06-01 04:18:39 51°14.93 2°53.727 12.8082 3.812631 32.309875 11.387845
2006-06-01 04:18:43 51°14.932 2°53.708 12.8098 3.814843 32.329423 11.590101
2006-06-01 04:18:49 51°14.936 2°53.676 12.8253 3.814843 32.329423 11.590101
2006-06-01 04:18:53 51°14.939 2°53.657 12.8273 3.81811 32.360914 11.758648
2006-06-01 04:18:59 51°14.943 2°53.627 12.8219 3.817267 32.352959 11.826067
2006-06-01 04:19:03 51°14.946 2°53.606 12.7997 3.812104 32.302244 11.893486
2006-06-01 04:19:09 51°14.95 2°53.576 12.8165 3.817899 32.352266 11.960905
2006-06-01 04:19:13 51°14.952 2°53.555 12.8094 3.816424 32.338348 11.960905
2006-06-01 04:19:19 51°14.956 2°53.525 12.8199 3.816424 32.338348 11.960905
2006-06-01 04:19:23 51°14.959 2°53.504 12.8135 3.819479 32.36718 12.028324
2006-06-01 04:19:29 51°14.963 2°53.475 12.8341 3.817793 32.345282 12.095742
2006-06-01 04:19:33 51°14.967 2°53.453 12.8129 3.814316 32.313811 12.062033
2006-06-01 04:19:39 51°14.972 2°53.424 12.8131 3.823484 32.406966 12.028324
2006-06-01 04:19:43 51°14.975 2°53.403 12.8235 3.819058 32.367865 11.994614
2006-06-01 04:19:49 51°14.981 2°53.373 12.826 3.819058 32.367865 11.994614
2006-06-01 04:19:53 51°14.984 2°53.353 12.8249 3.822641 32.398344 11.960905
2006-06-01 04:19:59 51°14.99 2°53.323 12.8278 3.819058 32.363203 11.927195
2006-06-01 04:20:03 51°14.993 2°53.303 12.8304 3.823589 32.402626 11.893486
2006-06-01 04:20:09 51°14.999 2°53.273 12.8264 3.824432 32.412582 11.859777
2006-06-01 04:20:13 51°15.003 2°53.252 12.8335 3.822114 32.392705 11.859777
2006-06-01 04:20:19 51°15.009 2°53.222 12.8222 3.822114 32.392705 11.859777
2006-06-01 04:20:23 51°15.013 2°53.202 12.818 3.824853 32.417227 11.927195
2006-06-01 04:20:29 51°15.02 2°53.174 12.8261 3.823378 32.396638 11.927195
2006-06-01 04:20:33 51°15.025 2°53.154 12.8202 3.821376 32.375751 11.893486
2006-06-01 04:20:39 51°15.032 2°53.125 12.8081 3.820322 32.36581 11.792358
2006-06-01 04:20:43 51°15.037 2°53.106 12.8159 3.810734 32.276701 11.69123
2006-06-01 04:20:49 51°15.044 2°53.077 12.8079 3.810734 32.276701 11.69123
2006-06-01 04:20:53 51°15.05 2°53.058 12.8079 3.814843 32.318781 11.590101
2006-06-01 04:20:59 51°15.058 2°53.029 12.8037 3.815159 32.323758 11.488973
2006-06-01 04:21:03 51°15.063 2°53.009 12.8004 3.812947 32.302885 11.455264
2006-06-01 04:21:09 51°15.071 2°52.98 12.7997 3.805887 32.240283 11.387845
2006-06-01 04:21:13 51°15.077 2°52.962 12.8049 3.805782 32.241943 11.387845
2006-06-01 04:21:19 51°15.084 2°52.932 12.8049 3.805782 32.241943 11.387845
2006-06-01 04:21:23 51°15.09 2°52.914 12.8104 3.80673 32.254206 11.421554
2006-06-01 04:21:29 51°15.099 2°52.885 12.8128 3.803569 32.227706 11.354136
2006-06-01 04:21:33 51°15.104 2°52.867 12.8186 3.801356 32.206835 11.455264
2006-06-01 04:21:39 51°15.112 2°52.838 12.8232 3.802621 32.221414 11.421554
2006-06-01 04:21:43 51°15.119 2°52.818 12.8073 3.798617 32.184971 11.522683
2006-06-01 04:21:48 51°15.126 2°52.796 12.8142 3.798617 32.184971 11.522683
2006-06-01 04:21:53 51°15.132 2°52.771 12.809 3.796931 32.167084 11.623811
2006-06-01 04:21:59 51°15.14 2°52.742 12.8141 3.794824 32.143903 11.623811
2006-06-01 04:22:03 51°15.146 2°52.723 12.8195 3.793981 32.135293 11.758648
2006-06-01 04:22:09 51°15.155 2°52.696 12.8277 3.786816 32.065109 11.826067
2006-06-01 04:22:13 51°15.161 2°52.676 12.8232 3.796088 32.151854 11.893486
2006-06-01 04:22:19 51°15.17 2°52.647 12.8126 3.796088 32.151854 11.893486
2006-06-01 04:22:23 51°15.175 2°52.628 12.8208 3.792611 32.119735 11.893486
2006-06-01 04:22:28 51°15.182 2°52.604 12.8168 3.792295 32.116755 11.927195
2006-06-01 04:22:33 51°15.188 2°52.578 12.8318 3.793243 32.125033 11.893486
2006-06-01 04:22:39 51°15.196 2°52.551 12.8369 3.793138 32.123379 11.960905
2006-06-01 04:22:43 51°15.201 2°52.531 12.8368 3.790925 32.099879 12.062033
2006-06-01 04:22:49 51°15.207 2°52.503 12.834 3.790925 32.099879 12.062033
2006-06-01 04:22:53 51°15.212 2°52.483 12.8366 3.790082 32.089953 12.095742
2006-06-01 04:22:59 51°15.219 2°52.455 12.8386 3.792295 32.112789 12.163161
2006-06-01 04:23:04 51°15.225 2°52.43 12.8382 3.787975 32.072073 12.23058
2006-06-01 04:23:09 51°15.232 2°52.406 12.8436 3.782917 32.017169 12.399127
2006-06-01 04:23:13 51°15.237 2°52.385 12.8484 3.786394 32.04597 12.533965
2006-06-01 04:23:19 51°15.243 2°52.358 12.8399 3.786394 32.04597 12.533965
2006-06-01 04:23:23 51°15.248 2°52.338 12.8402 3.786815 32.0506 12.601383
2006-06-01 04:23:29 51°15.256 2°52.309 12.838 3.789134 32.073098 12.601383
2006-06-01 04:23:33 51°15.261 2°52.29 12.8401 3.786499 32.046304 12.567674
2006-06-01 04:23:39 51°15.267 2°52.261 12.845 3.787132 32.050941 12.500255
2006-06-01 04:23:43 51°15.272 2°52.242 12.8498 3.78808 32.057896 12.432836
2006-06-01 04:23:49 51°15.279 2°52.212 12.8428 3.78808 32.057896 12.432836
2006-06-01 04:23:53 51°15.284 2°52.193 12.8499 3.789344 32.069806 12.500255
2006-06-01 04:23:59 51°15.29 2°52.165 12.858 3.779334 31.974875 12.500255
2006-06-01 04:24:03 51°15.294 2°52.144 12.8532 3.789976 32.075762 12.500255
2006-06-01 04:24:08 51°15.3 2°52.119 12.8674 3.788712 32.063851 12.432836
2006-06-01 04:24:13 51°15.304 2°52.096 12.8546 3.789871 32.071471 12.432836
2006-06-01 04:24:19 51°15.31 2°52.066 12.8568 3.789871 32.071471 12.432836
2006-06-01 04:24:24 51°15.315 2°52.041 12.86 3.789976 32.069167 12.432836
2006-06-01 04:24:29 51°15.32 2°52.017 12.852 3.791978 32.086703 12.466546
2006-06-01 04:24:33 51°15.324 2°51.997 12.851 3.793559 32.098951 12.432836
2006-06-01 04:24:39 51°15.33 2°51.968 12.8577 3.794191 32.104245 12.432836
2006-06-01 04:24:43 51°15.335 2°51.947 12.8559 3.791451 32.076466 12.432836
2006-06-01 04:24:49 51°15.341 2°51.919 12.8633 3.791451 32.076466 12.432836
2006-06-01 04:24:53 51°15.344 2°51.899 12.8604 3.787447 32.038105 12.365418
2006-06-01 04:24:57 51°15.349 2°51.879 12.8621 3.796614 32.12377 12.264289
2006-06-01 04:25:03 51°15.354 2°51.851 12.863 3.798089 32.138986 12.23058
2006-06-01 04:25:09 51°15.36 2°51.821 12.8596 3.800934 32.167108 12.129452
2006-06-01 04:25:13 51°15.365 2°51.801 12.8585 3.799143 32.149572 12.095742
2006-06-01 04:25:19 51°15.371 2°51.772 12.8625 3.799143 32.149572 12.095742
2006-06-01 04:25:23 51°15.374 2°51.753 12.8582 3.801461 32.17141 12.062033
2006-06-01 04:25:29 51°15.381 2°51.722 12.8554 3.800197 32.158176 12.028324
2006-06-01 04:25:33 51°15.385 2°51.702 12.8566 3.799564 32.150238 11.960905
2006-06-01 04:25:37 51°15.389 2°51.684 12.8503 3.801461 32.166121 11.927195
2006-06-01 04:25:43 51°15.394 2°51.656 12.8507 3.799775 32.152223 11.893486
2006-06-01 04:25:49 51°15.4 2°51.626 12.8542 3.799775 32.152223 11.893486
2006-06-01 04:25:53 51°15.404 2°51.608 12.8609 3.80125 32.166119 11.826067
2006-06-01 04:25:59 51°15.409 2°51.576 12.8469 3.795455 32.112194 11.826067
2006-06-01 04:26:03 51°15.414 2°51.558 12.8462 3.799564 32.15156 11.826067
2006-06-01 04:26:09 51°15.42 2°51.529 12.8645 3.798511 32.142956 11.758648
2006-06-01 04:26:13 51°15.423 2°51.51 12.852 3.797668 32.138319 11.758648
2006-06-01 04:26:19 51°15.43 2°51.481 12.8565 3.797668 32.138319 11.758648
2006-06-01 04:26:23 51°15.434 2°51.462 12.8583 3.79693 32.132031 11.758648
2006-06-01 04:26:29 51°15.44 2°51.432 12.8629 3.793664 32.097964 11.826067
2006-06-01 04:26:33 51°15.443 2°51.413 12.8677 3.78671 32.033795 11.826067
2006-06-01 04:26:39 51°15.449 2°51.384 12.862 3.79261 32.090019 11.893486
2006-06-01 04:26:43 51°15.453 2°51.364 12.8691 3.786921 32.034462 11.927195
2006-06-01 04:26:49 51°15.459 2°51.336 12.8679 3.786921 32.034462 11.927195
2006-06-01 04:26:53 51°15.464 2°51.316 12.8663 3.800618 32.162147 11.994614
2006-06-01 04:26:59 51°15.47 2°51.288 12.8615 3.802726 32.182662 12.028324
2006-06-01 04:27:03 51°15.474 2°51.268 12.8598 3.801883 32.173397 12.095742
2006-06-01 04:27:09 51°15.48 2°51.239 12.8603 3.800302 32.153882 12.062033
2006-06-01 04:27:13 51°15.484 2°51.219 12.8583 3.804306 32.190936 12.129452
2006-06-01 04:27:17 51°15.489 2°51.201 12.8586 3.804306 32.190936 12.129452
2006-06-01 04:27:23 51°15.495 2°51.172 12.8547 3.802936 32.176049 12.028324
2006-06-01 04:27:29 51°15.501 2°51.143 12.8527 3.804938 32.195568 12.062033
2006-06-01 04:27:33 51°15.506 2°51.123 12.8531 3.805465 32.201854 12.028324
2006-06-01 04:27:39 51°15.513 2°51.095 12.8591 3.804622 32.195899 11.960905
2006-06-01 04:27:43 51°15.517 2°51.075 12.8499 3.805254 32.201855 11.893486
2006-06-01 04:27:49 51°15.523 2°51.046 12.855 3.805254 32.201855 11.893486
2006-06-01 04:27:53 51°15.526 2°51.026 12.8603 3.800407 32.158178 11.893486
2006-06-01 04:27:59 51°15.532 2°50.997 12.8484 3.802515 32.180676 11.859777
2006-06-01 04:28:03 51°15.536 2°50.979 12.86 3.805465 32.21046 11.859777
2006-06-01 04:28:09 51°15.543 2°50.949 12.8516 3.798722 32.146924 11.859777
2006-06-01 04:28:13 51°15.547 2°50.93 12.8543 3.803779 32.193251 11.893486
2006-06-01 04:28:19 51°15.554 2°50.902 12.8507 3.803779 32.193251 11.893486
2006-06-01 04:28:23 51°15.558 2°50.881 12.849 3.803147 32.188618 11.859777
2006-06-01 04:28:29 51°15.564 2°50.852 12.8419 3.793664 32.098623 11.859777
2006-06-01 04:28:33 51°15.568 2°50.833 12.8513 3.80694 32.225024 11.859777
2006-06-01 04:28:39 51°15.574 2°50.805 12.8412 3.804517 32.202186 11.927195
2006-06-01 04:28:43 51°15.579 2°50.786 12.8369 3.79672 32.129386 11.893486
2006-06-01 04:28:49 51°15.585 2°50.756 12.8377 3.79672 32.129386 11.893486
2006-06-01 04:28:53 51°15.588 2°50.736 12.8363 3.808415 32.240915 11.960905
2006-06-01 04:28:59 51°15.595 2°50.707 12.8289 3.808415 32.242904 11.960905
2006-06-01 04:29:03 51°15.598 2°50.688 12.8278 3.804622 32.208477 11.960905
2006-06-01 04:29:09 51°15.604 2°50.659 12.8264 3.80536 32.215428 11.960905
2006-06-01 04:29:13 51°15.609 2°50.639 12.8332 3.810101 32.262112 12.028324
2006-06-01 04:29:19 51°15.616 2°50.612 12.835 3.810101 32.262112 12.028324
2006-06-01 04:29:23 51°15.621 2°50.591 12.8311 3.80399 32.206492 12.062033
2006-06-01 04:29:29 51°15.627 2°50.563 12.8253 3.813473 32.29988 12.129452
2006-06-01 04:29:33 51°15.632 2°50.543 12.8142 3.821165 32.373763 12.196871
2006-06-01 04:29:39 51°15.638 2°50.515 12.8118 3.823905 32.403609 12.331708
2006-06-01 04:29:43 51°15.642 2°50.496 12.801 3.820638 32.372788 12.365418
2006-06-01 04:29:49 51°15.648 2°50.465 12.8006 3.820638 32.372788 12.365418
2006-06-01 04:29:54 51°15.653 2°50.444 12.7936 3.830438 32.463929 12.466546
2006-06-01 04:29:59 51°15.659 2°50.418 12.7805 3.840027 32.55579 12.533965
2006-06-01 04:30:03 51°15.663 2°50.4 12.7806 3.844136 32.59661 12.567674
2006-06-01 04:30:09 51°15.67 2°50.371 12.7811 3.847403 32.631493 12.567674
2006-06-01 04:30:13 51°15.673 2°50.352 12.7741 3.84361 32.603039 12.567674
2006-06-01 04:30:19 51°15.679 2°50.323 12.7623 3.84361 32.603039 12.567674
2006-06-01 04:30:23 51°15.684 2°50.304 12.7614 3.850037 32.670503 12.601383
2006-06-01 04:30:29 51°15.69 2°50.276 12.758 3.855095 32.723709 12.601383
2006-06-01 04:30:33 51°15.694 2°50.257 12.7522 3.854463 32.725145 12.601383
2006-06-01 04:30:39 51°15.701 2°50.227 12.7483 3.857098 32.75546 12.635093
2006-06-01 04:30:43 51°15.705 2°50.208 12.763 3.856149 32.752562 12.635093
2006-06-01 04:30:49 51°15.711 2°50.18 12.7411 3.856149 32.752562 12.635093
2006-06-01 04:30:53 51°15.715 2°50.161 12.7305 3.857414 32.767229 12.601383
2006-06-01 04:30:58 51°15.718 2°50.136 12.7302 3.856255 32.760311 12.601383
2006-06-01 04:31:03 51°15.723 2°50.112 12.7179 3.853937 32.742422 12.601383
2006-06-01 04:31:09 51°15.727 2°50.082 12.7188 3.855728 32.764781 12.567674
2006-06-01 04:31:13 51°15.733 2°50.063 12.7129 3.846245 32.680412 12.601383
2006-06-01 04:31:19 51°15.737 2°50.034 12.7331 3.846245 32.680412 12.601383
2006-06-01 04:31:23 51°15.741 2°50.015 12.7168 3.852251 32.739967 12.567674
2006-06-01 04:31:29 51°15.746 2°49.985 12.7147 3.848563 32.7091 12.601383
2006-06-01 04:31:33 51°15.751 2°49.967 12.7166 3.860259 32.82799 12.601383
2006-06-01 04:31:39 51°15.756 2°49.936 12.7182 3.861629 32.845036 12.635093
2006-06-01 04:31:43 51°15.76 2°49.916 12.7227 3.867214 32.90272 12.702512
2006-06-01 04:31:49 51°15.766 2°49.887 12.7252 3.867214 32.90272 12.702512
2006-06-01 04:31:53 51°15.77 2°49.867 12.7299 3.865634 32.889773 12.76993
2006-06-01 04:31:57 51°15.774 2°49.848 12.7282 3.879543 33.023035 12.80364
2006-06-01 04:32:03 51°15.781 2°49.818 12.7363 3.88144 33.042393 12.871059
2006-06-01 04:32:09 51°15.787 2°49.79 12.7298 3.88966 33.121751 12.904768
2006-06-01 04:32:14 51°15.792 2°49.765 12.7375 3.891873 33.140701 12.938477
2006-06-01 04:32:19 51°15.796 2°49.741 12.7402 3.891873 33.140701 12.938477
2006-06-01 04:32:24 51°15.8 2°49.715 12.7425 3.892083 33.141332 13.005896
2006-06-01 04:32:29 51°15.806 2°49.69 12.7374 3.897036 33.186971 13.073315
2006-06-01 04:32:33 51°15.809 2°49.67 12.7445 3.894928 33.164912 13.140734
2006-06-01 04:32:39 51°15.815 2°49.642 12.7382 3.894823 33.162543 13.208153
2006-06-01 04:32:43 51°15.818 2°49.623 12.7449 3.896509 33.17649 13.275571
2006-06-01 04:32:49 51°15.824 2°49.592 12.7409 3.896509 33.17649 13.275571
2006-06-01 04:32:53 51°15.828 2°49.573 12.7426 3.896509 33.17512 13.34299
2006-06-01 04:32:59 51°15.834 2°49.542 12.7561 3.903359 33.238759 13.3767
2006-06-01 04:33:03 51°15.839 2°49.522 12.7567 3.901989 33.223013 13.410409
2006-06-01 04:33:09 51°15.845 2°49.493 12.7521 3.90652 33.265336 13.511537
2006-06-01 04:33:14 51°15.851 2°49.468 12.7497 3.910208 33.297601 13.511537
2006-06-01 04:33:19 51°15.856 2°49.443 12.7516 3.910208 33.297601 13.511537
2006-06-01 04:33:24 51°15.861 2°49.418 12.7384 3.907995 33.276594 13.511537
2006-06-01 04:33:29 51°15.866 2°49.393 12.7287 3.910314 33.299976 13.477828
2006-06-01 04:33:33 51°15.87 2°49.374 12.7216 3.911157 33.30523 13.477828
2006-06-01 04:33:39 51°15.876 2°49.345 12.7225 3.906836 33.262845 13.3767
2006-06-01 04:33:43 51°15.881 2°49.326 12.7281 3.913475 33.323113 13.34299
2006-06-01 04:33:49 51°15.887 2°49.296 12.7149 3.913475 33.323113 13.34299
2006-06-01 04:33:53 51°15.891 2°49.277 12.7157 3.913897 33.32849 13.275571
2006-06-01 04:33:59 51°15.897 2°49.247 12.7193 3.916637 33.357256 13.174443
2006-06-01 04:34:04 51°15.902 2°49.223 12.7122 3.914424 33.341749 13.174443
2006-06-01 04:34:08 51°15.905 2°49.203 12.7056 3.918007 33.381288 13.140734
2006-06-01 04:34:13 51°15.911 2°49.179 12.7041 3.916004 33.365025 13.073315
2006-06-01 04:34:19 51°15.916 2°49.149 12.7068 3.916004 33.365025 13.073315
2006-06-01 04:34:23 51°15.92 2°49.13 12.7148 3.92159 33.422226 13.039606
2006-06-01 04:34:29 51°15.926 2°49.101 12.7121 3.919377 33.406027 13.039606
2006-06-01 04:34:33 51°15.93 2°49.08 12.7154 3.920641 33.419425 13.005896
2006-06-01 04:34:39 51°15.935 2°49.051 12.7096 3.922328 33.436832 12.972187
2006-06-01 04:34:44 51°15.94 2°49.027 12.7053 3.925805 33.472654 12.938477
2006-06-01 04:34:48 51°15.945 2°49.008 12.7028 3.925805 33.472654 12.938477
2006-06-01 04:34:53 51°15.949 2°48.985 12.7097 3.924751 33.46471 12.871059
2006-06-01 04:34:59 51°15.955 2°48.954 12.7175 3.919166 33.411616 12.904768
2006-06-01 04:35:03 51°15.959 2°48.935 12.7068 3.923592 33.452998 12.837349
2006-06-01 04:35:09 51°15.965 2°48.906 12.7116 3.923487 33.451996 12.76993
2006-06-01 04:35:13 51°15.97 2°48.887 12.7139 3.922011 33.439353 12.80364
2006-06-01 04:35:18 51°15.975 2°48.863 12.7113 3.922011 33.439353 12.80364
2006-06-01 04:35:23 51°15.979 2°48.837 12.7138 3.924014 33.459079 12.837349
2006-06-01 04:35:29 51°15.985 2°48.808 12.7081 3.92296 33.44906 12.837349
2006-06-01 04:35:33 51°15.989 2°48.789 12.7041 3.921063 33.429646 12.837349
2006-06-01 04:35:39 51°15.996 2°48.759 12.7063 3.919588 33.415622 12.80364
2006-06-01 04:35:43 51°15.999 2°48.739 12.7078 3.920536 33.423947 12.80364
2006-06-01 04:35:49 51°16.005 2°48.711 12.7001 3.920536 33.423947 12.80364
2006-06-01 04:35:53 51°16.009 2°48.691 12.7016 3.92296 33.446987 12.80364
2006-06-01 04:35:59 51°16.014 2°48.661 12.6982 3.923592 33.45438 12.837349
2006-06-01 04:36:03 51°16.019 2°48.642 12.6952 3.92296 33.448369 12.80364
2006-06-01 04:36:09 51°16.025 2°48.613 12.6989 3.921906 33.439042 12.80364
2006-06-01 04:36:13 51°16.029 2°48.592 12.6986 3.926016 33.478808 12.837349
2006-06-01 04:36:19 51°16.034 2°48.564 12.702 3.926016 33.478808 12.837349
2006-06-01 04:36:23 51°16.039 2°48.545 12.698 3.921168 33.436174 12.837349
2006-06-01 04:36:29 51°16.044 2°48.515 12.7021 3.928861 33.511404 12.871059
2006-06-01 04:36:33 51°16.049 2°48.495 12.695 3.928967 33.513099 12.904768
2006-06-01 04:36:38 51°16.054 2°48.471 12.6913 3.931918 33.543245 12.904768
2006-06-01 04:36:43 51°16.059 2°48.448 12.6898 3.932655 33.54957 12.972187
2006-06-01 04:36:49 51°16.065 2°48.418 12.6895 3.932655 33.54957 12.972187
2006-06-01 04:36:53 51°16.068 2°48.399 12.691 3.93255 33.547874 12.972187
2006-06-01 04:36:58 51°16.073 2°48.375 12.6791 3.933288 33.554198 12.972187
2006-06-01 04:37:04 51°16.079 2°48.346 12.674 3.928018 33.50477 12.972187
2006-06-01 04:37:09 51°16.083 2°48.321 12.6754 3.928335 33.510548 12.972187
2006-06-01 04:37:13 51°16.087 2°48.302 12.6714 3.93529 33.578799 12.972187
2006-06-01 04:37:19 51°16.092 2°48.272 12.6701 3.93529 33.578799 12.972187
2006-06-01 04:37:23 51°16.097 2°48.254 12.6618 3.933288 33.561828 12.972187
2006-06-01 04:37:29 51°16.102 2°48.223 12.6671 3.929599 33.530201 12.972187
2006-06-01 04:37:34 51°16.107 2°48.2 12.6622 3.938346 33.61483 12.972187
2006-06-01 04:37:39 51°16.112 2°48.176 12.6557 3.938346 33.619001 12.904768
2006-06-01 04:37:44 51°16.116 2°48.152 12.6522 3.938557 33.623789 12.938477
2006-06-01 04:37:48 51°16.119 2°48.133 12.6498 3.938557 33.623789 12.938477
2006-06-01 04:37:54 51°16.125 2°48.103 12.6484 3.939084 33.632979 12.938477
2006-06-01 04:37:59 51°16.131 2°48.079 12.6407 3.940243 33.64541 12.904768
2006-06-01 04:38:03 51°16.134 2°48.059 12.6547 3.9394 33.640861 12.871059
2006-06-01 04:38:09 51°16.141 2°48.031 12.6389 3.944037 33.689905 12.871059
2006-06-01 04:38:13 51°16.144 2°48.01 12.644 3.940981 33.663577 12.904768
2006-06-01 04:38:19 51°16.151 2°47.981 12.6355 3.940981 33.663577 12.904768
2006-06-01 04:38:23 51°16.155 2°47.961 12.641 3.94351 33.690462 12.938477
2006-06-01 04:38:29 51°16.161 2°47.934 12.6363 3.944564 33.701899 12.871059
2006-06-01 04:38:33 51°16.165 2°47.915 12.6407 3.94467 33.707089 12.938477
2006-06-01 04:38:39 51°16.171 2°47.886 12.6392 3.942351 33.685691 12.938477
2006-06-01 04:38:41 51°16.173 2°47.877 12.6298 3.945513 33.719312 12.938477
2006-06-01 04:38:49 51°16.182 2°47.838 12.6341 3.945513 33.719312 12.938477
2006-06-01 04:38:53 51°16.187 2°47.82 12.6276 3.946145 33.727434 12.938477
2006-06-01 04:38:59 51°16.193 2°47.789 12.6257 3.947094 33.73927 12.938477
2006-06-01 04:39:03 51°16.197 2°47.771 12.6254 3.942878 33.699782 13.005896
2006-06-01 04:39:09 51°16.203 2°47.742 12.6195 3.946777 33.736256 13.005896
2006-06-01 04:39:13 51°16.207 2°47.723 12.614 3.939717 33.670344 12.972187
2006-06-01 04:39:19 51°16.213 2°47.694 12.6151 3.939717 33.670344 12.972187
2006-06-01 04:39:24 51°16.218 2°47.671 12.6098 3.941192 33.687197 13.039606
2006-06-01 04:39:29 51°16.224 2°47.646 12.6147 3.940454 33.683653 13.039606
2006-06-01 04:39:33 51°16.228 2°47.627 12.619 3.941298 33.693784 13.005896
2006-06-01 04:39:39 51°16.233 2°47.598 12.6033 3.938558 33.671149 13.005896
2006-06-01 04:39:43 51°16.237 2°47.58 12.6096 3.943827 33.724886 13.005896
2006-06-01 04:39:48 51°16.242 2°47.555 12.6068 3.943827 33.724886 13.005896
2006-06-01 04:39:53 51°16.246 2°47.531 12.6063 3.937609 33.667686 13.039606
2006-06-01 04:39:59 51°16.252 2°47.502 12.6046 3.939822 33.690884 13.039606
2006-06-01 04:40:03 51°16.255 2°47.484 12.6049 3.941192 33.706744 13.073315
2006-06-01 04:40:09 51°16.26 2°47.455 12.6062 3.938874 33.683932 13.039606
2006-06-01 04:40:13 51°16.264 2°47.436 12.6092 3.94056 33.702808 13.073315
2006-06-01 04:40:19 51°16.269 2°47.406 12.6242 3.94056 33.702808 13.073315
2006-06-01 04:40:23 51°16.273 2°47.387 12.6195 3.938558 33.685105 13.107024
2006-06-01 04:40:29 51°16.278 2°47.359 12.6194 3.936766 33.66732 13.039606
2006-06-01 04:40:33 51°16.282 2°47.339 12.614 3.935186 33.652941 13.107024
2006-06-01 04:40:39 51°16.287 2°47.311 12.6177 3.933183 33.635241 13.107024
2006-06-01 04:40:43 51°16.291 2°47.292 12.6152 3.930022 33.605092 13.107024
2006-06-01 04:40:49 51°16.296 2°47.262 12.6158 3.930022 33.605092 13.107024
2006-06-01 04:40:53 51°16.299 2°47.243 12.6217 3.93371 33.638871 13.107024
2006-06-01 04:40:58 51°16.304 2°47.219 12.6233 3.931708 33.61699 13.140734
2006-06-01 04:41:03 51°16.309 2°47.195 12.6243 3.934342 33.640021 13.107024
2006-06-01 04:41:09 51°16.314 2°47.167 12.6317 3.933078 33.62866 13.140734
2006-06-01 04:41:13 51°16.317 2°47.147 12.6263 3.933499 33.633376 13.140734
2006-06-01 04:41:19 51°16.323 2°47.117 12.6272 3.933499 33.633376 13.140734
2006-06-01 04:41:23 51°16.327 2°47.098 12.625 3.938558 33.680917 13.140734
2006-06-01 04:41:29 51°16.332 2°47.068 12.6313 3.935291 33.649065 13.174443
2006-06-01 04:41:33 51°16.336 2°47.049 12.6276 3.935607 33.649291 13.174443
2006-06-01 04:41:39 51°16.342 2°47.019 12.6334 3.936555 33.656242 13.208153
2006-06-01 04:41:43 51°16.346 2°47 12.6281 3.940665 33.694037 13.208153
2006-06-01 04:41:49 51°16.352 2°46.971 12.6299 3.940665 33.694037 13.208153
2006-06-01 04:41:53 51°16.355 2°46.953 12.6294 3.939401 33.68128 13.208153
2006-06-01 04:41:57 51°16.359 2°46.932 12.6346 3.934869 33.638075 13.208153
2006-06-01 04:42:03 51°16.365 2°46.903 12.6312 3.936028 33.646338 13.275571
2006-06-01 04:42:09 51°16.37 2°46.874 12.6361 3.94056 33.688844 13.241862
2006-06-01 04:42:13 51°16.374 2°46.854 12.6315 3.942984 33.711956 13.241862
2006-06-01 04:42:19 51°16.38 2°46.824 12.6304 3.942984 33.711956 13.241862
2006-06-01 04:42:24 51°16.384 2°46.8 12.6355 3.938768 33.671066 13.241862
2006-06-01 04:42:28 51°16.388 2°46.78 12.6344 3.942668 33.70964 13.241862
2006-06-01 04:42:33 51°16.392 2°46.755 12.6375 3.940244 33.685132 13.309281
2006-06-01 04:42:39 51°16.398 2°46.726 12.6378 3.945091 33.72996 13.309281
2006-06-01 04:42:44 51°16.404 2°46.702 12.6344 3.941298 33.693086 13.309281
2006-06-01 04:42:48 51°16.406 2°46.682 12.6314 3.941298 33.693086 13.309281
2006-06-01 04:42:53 51°16.411 2°46.659 12.6353 3.943405 33.711786 13.34299
2006-06-01 04:42:59 51°16.418 2°46.629 12.6317 3.944248 33.719825 13.34299
2006-06-01 04:43:04 51°16.423 2°46.604 12.6301 3.943616 33.712399 13.3767
2006-06-01 04:43:09 51°16.428 2°46.58 12.637 3.945302 33.727079 13.3767
2006-06-01 04:43:13 51°16.431 2°46.56 12.6367 3.946988 33.743157 13.3767
2006-06-01 04:43:19 51°16.438 2°46.531 12.635 3.946988 33.743157 13.3767
2006-06-01 04:43:24 51°16.442 2°46.505 12.6354 3.950255 33.77431 13.3767
2006-06-01 04:43:29 51°16.446 2°46.481 12.6354 3.950677 33.779729 13.410409
2006-06-01 04:43:33 51°16.45 2°46.461 12.6356 3.948148 33.755609 13.410409
2006-06-01 04:43:39 51°16.456 2°46.433 12.6418 3.951941 33.791791 13.3767
2006-06-01 04:43:43 51°16.459 2°46.412 12.6436 3.950466 33.77702 13.444118
2006-06-01 04:43:49 51°16.465 2°46.384 12.6402 3.950466 33.77702 13.444118
2006-06-01 04:43:53 51°16.468 2°46.363 12.6407 3.953522 33.805468 13.410409
2006-06-01 04:43:56 51°16.472 2°46.349 12.64 3.953311 33.803458 13.477828
2006-06-01 04:44:03 51°16.478 2°46.314 12.6436 3.955524 33.824567 13.444118
2006-06-01 04:44:09 51°16.484 2°46.286 12.6446 3.957211 33.83925 13.477828
2006-06-01 04:44:13 51°16.487 2°46.265 12.6433 3.952468 33.792617 13.545247
2006-06-01 04:44:19 51°16.493 2°46.236 12.6508 3.952468 33.792617 13.545247
2006-06-01 04:44:23 51°16.496 2°46.216 12.6536 3.954576 33.813419 13.545247
2006-06-01 04:44:28 51°16.501 2°46.193 12.6507 3.953417 33.803063 13.545247
2006-06-01 04:44:33 51°16.506 2°46.167 12.6544 3.955419 33.82146 13.545247
2006-06-01 04:44:39 51°16.511 2°46.137 12.659 3.957843 33.84388 13.578956
2006-06-01 04:44:44 51°16.515 2°46.113 12.6622 3.957421 33.839158 13.612665
2006-06-01 04:44:48 51°16.519 2°46.092 12.6661 3.957421 33.839158 13.612665
2006-06-01 04:44:53 51°16.524 2°46.067 12.6712 3.954576 33.809918 13.646375
2006-06-01 04:44:59 51°16.53 2°46.038 12.6715 3.954154 33.803098 13.680084
2006-06-01 04:45:03 51°16.533 2°46.017 12.6742 3.959951 33.854871 13.680084
2006-06-01 04:45:09 51°16.539 2°45.988 12.6822 3.958054 33.83608 13.747503
2006-06-01 04:45:13 51°16.543 2°45.967 12.681 3.9531 33.786753 13.781212
2006-06-01 04:45:19 51°16.549 2°45.939 12.6897 3.9531 33.786753 13.781212
2006-06-01 04:45:23 51°16.553 2°45.919 12.6893 3.957316 33.821343 13.781212
2006-06-01 04:45:29 51°16.559 2°45.89 12.6874 3.956473 33.810506 13.848631
2006-06-01 04:45:33 51°16.564 2°45.869 12.6896 3.954786 33.791636 13.848631
2006-06-01 04:45:39 51°16.571 2°45.84 12.6918 3.956789 33.807223 13.882341
2006-06-01 04:45:43 51°16.575 2°45.82 12.6941 3.957526 33.810057 13.91605
2006-06-01 04:45:49 51°16.582 2°45.791 12.6921 3.957526 33.810057 13.91605
2006-06-01 04:45:53 51°16.586 2°45.771 12.6965 3.960056 33.830662 13.91605
2006-06-01 04:45:59 51°16.592 2°45.742 12.6964 3.953205 33.760503 13.983469
2006-06-01 04:46:04 51°16.598 2°45.717 12.6973 3.954154 33.768141 13.949759
2006-06-01 04:46:08 51°16.603 2°45.698 12.698 3.95858 33.80891 14.017178
2006-06-01 04:46:13 51°16.607 2°45.672 12.7028 3.959318 33.815238 14.084597
2006-06-01 04:46:19 51°16.614 2°45.642 12.7047 3.959318 33.815238 14.084597
2006-06-01 04:46:23 51°16.619 2°45.623 12.7023 3.961636 33.835929 14.017178
2006-06-01 04:46:28 51°16.625 2°45.599 12.7038 3.959845 33.817461 14.084597
2006-06-01 04:46:33 51°16.63 2°45.574 12.7031 3.960898 33.826102 14.152016
2006-06-01 04:46:39 51°16.637 2°45.546 12.7068 3.959528 33.811653 14.152016
2006-06-01 04:46:44 51°16.643 2°45.521 12.7072 3.959318 33.808247 14.152016
2006-06-01 04:46:48 51°16.647 2°45.501 12.7154 3.959318 33.808247 14.152016
2006-06-01 04:46:54 51°16.654 2°45.471 12.7122 3.962795 33.839277 14.185725
2006-06-01 04:46:59 51°16.661 2°45.447 12.713 3.96269 33.836174 14.219435
2006-06-01 04:47:04 51°16.667 2°45.422 12.7193 3.961004 33.818715 14.253144
2006-06-01 04:47:08 51°16.671 2°45.402 12.7195 3.96132 33.821726 14.286853
2006-06-01 04:47:13 51°16.677 2°45.378 12.7227 3.964587 33.852145 14.286853
2006-06-01 04:47:19 51°16.684 2°45.348 12.7248 3.964587 33.852145 14.286853
2006-06-01 04:47:23 51°16.689 2°45.329 12.7286 3.963111 33.836692 14.320563
2006-06-01 04:47:29 51°16.696 2°45.3 12.7302 3.965219 33.85327 14.320563
2006-06-01 04:47:33 51°16.702 2°45.281 12.7307 3.963428 33.834109 14.387982
2006-06-01 04:47:39 51°16.71 2°45.252 12.7341 3.960161 33.800205 14.421691
2006-06-01 04:47:44 51°16.716 2°45.227 12.7385 3.965114 33.84597 14.4554
2006-06-01 04:47:49 51°16.723 2°45.204 12.738 3.965114 33.84597 14.4554
2006-06-01 04:47:53 51°16.729 2°45.183 12.7426 3.962057 33.814773 14.4554
2006-06-01 04:47:59 51°16.737 2°45.154 12.738 3.958263 33.775166 14.48911
2006-06-01 04:48:04 51°16.743 2°45.131 12.7425 3.965324 33.839587 14.556529
2006-06-01 04:48:08 51°16.749 2°45.111 12.744 3.963006 33.814721 14.556529
2006-06-01 04:48:13 51°16.756 2°45.086 12.7451 3.9629 33.810924 14.590238
2006-06-01 04:48:19 51°16.765 2°45.06 12.7524 3.9629 33.810924 14.590238
2006-06-01 04:48:24 51°16.773 2°45.035 12.752 3.960793 33.790167 14.590238
2006-06-01 04:48:29 51°16.782 2°45.012 12.756 3.961319 33.793088 14.623947
2006-06-01 04:48:33 51°16.788 2°44.994 12.7563 3.961319 33.791692 14.623947
2006-06-01 04:48:39 51°16.799 2°44.965 12.7548 3.962373 33.798929 14.623947
2006-06-01 04:48:44 51°16.808 2°44.943 12.754 3.959001 33.765447 14.691366
2006-06-01 04:48:48 51°16.814 2°44.924 12.7606 3.959001 33.765447 14.691366
2006-06-01 04:48:54 51°16.826 2°44.896 12.7616 3.964376 33.81519 14.758785
2006-06-01 04:48:59 51°16.834 2°44.873 12.761 3.957736 33.749236 14.826204
2006-06-01 04:49:04 51°16.844 2°44.85 12.7643 3.960898 33.775824 14.826204
2006-06-01 04:49:08 51°16.851 2°44.832 12.7657 3.958263 33.748674 14.826204
2006-06-01 04:49:13 51°16.86 2°44.809 12.7691 3.960265 33.767718 14.859913
2006-06-01 04:49:19 51°16.871 2°44.782 12.7684 3.960265 33.767718 14.859913
2006-06-01 04:49:23 51°16.879 2°44.764 12.7704 3.961425 33.778048 14.893623
2006-06-01 04:49:29 51°16.89 2°44.736 12.7736 3.960582 33.767241 14.927332
2006-06-01 04:49:33 51°16.897 2°44.717 12.774 3.960581 33.765847 14.927332
2006-06-01 04:49:39 51°16.908 2°44.69 12.7762 3.960898 33.766763 14.961042
2006-06-01 04:49:44 51°16.916 2°44.667 12.7806 3.957314 33.730604 14.961042
2006-06-01 04:49:49 51°16.925 2°44.643 12.7794 3.957314 33.730604 14.961042
2006-06-01 04:49:53 51°16.932 2°44.624 12.7844 3.961635 33.769598 14.927332
2006-06-01 04:49:59 51°16.943 2°44.597 12.7826 3.95742 33.728822 14.927332
2006-06-01 04:50:03 51°16.95 2°44.579 12.7804 3.962794 33.77853 14.994751
2006-06-01 04:50:09 51°16.961 2°44.551 12.7826 3.96016 33.751391 14.961042
2006-06-01 04:50:13 51°16.968 2°44.532 12.785 3.962267 33.76934 14.994751
2006-06-01 04:50:19 51°16.978 2°44.504 12.7846 3.962267 33.76934 14.994751
2006-06-01 04:50:23 51°16.986 2°44.486 12.7864 3.955101 33.699829 14.927332
2006-06-01 04:50:29 51°16.996 2°44.459 12.7873 3.954996 33.696742 14.961042
2006-06-01 04:50:32 51°17.001 2°44.445 12.7909 3.956682 33.711376 14.961042
2006-06-01 04:50:39 51°17.013 2°44.413 12.7924 3.954047 33.68495 14.893623
2006-06-01 04:50:43 51°17.021 2°44.394 12.7933 3.957103 33.714687 14.927332
2006-06-01 04:50:49 51°17.031 2°44.367 12.7958 3.957103 33.714687 14.927332
2006-06-01 04:50:53 51°17.038 2°44.348 12.799 3.956998 33.7116 14.893623
2006-06-01 04:50:57 51°17.045 2°44.329 12.8005 3.955628 33.698581 14.927332
2006-06-01 04:51:03 51°17.056 2°44.302 12.8012 3.95605 33.700502 14.893623
2006-06-01 04:51:09 51°17.066 2°44.275 12.8034 3.956998 33.707429 14.927332
2006-06-01 04:51:13 51°17.073 2°44.258 12.8079 3.955417 33.689631 14.893623
2006-06-01 04:51:19 51°17.084 2°44.229 12.8117 3.955417 33.689631 14.893623
2006-06-01 04:51:23 51°17.09 2°44.211 12.8119 3.956049 33.694249 14.893623
2006-06-01 04:51:29 51°17.101 2°44.183 12.8123 3.951939 33.653125 14.961042
2006-06-01 04:51:34 51°17.109 2°44.16 12.8171 3.95489 33.67907 14.994751
2006-06-01 04:51:39 51°17.119 2°44.138 12.8173 3.951518 33.644267 14.994751
2006-06-01 04:51:43 51°17.125 2°44.119 12.827 3.951518 33.641493 14.994751
2006-06-01 04:51:48 51°17.134 2°44.095 12.8252 3.951518 33.641493 14.994751
2006-06-01 04:51:54 51°17.144 2°44.067 12.8221 3.948778 33.613399 15.02846
2006-06-01 04:51:59 51°17.154 2°44.045 12.8213 3.951307 33.635333 15.095879
2006-06-01 04:52:04 51°17.163 2°44.023 12.8229 3.946565 33.588236 15.06217
2006-06-01 04:52:08 51°17.17 2°44.003 12.8248 3.947935 33.598471 15.163298
2006-06-01 04:52:14 51°17.179 2°43.977 12.8264 3.945932 33.5767 15.197007
2006-06-01 04:52:19 51°17.189 2°43.954 12.8284 3.945932 33.5767 15.197007
2006-06-01 04:52:24 51°17.197 2°43.93 12.8303 3.949621 33.607552 15.197007
2006-06-01 04:52:28 51°17.204 2°43.912 12.8294 3.944773 33.560169 15.197007
2006-06-01 04:52:33 51°17.213 2°43.889 12.8294 3.946354 33.575167 15.197007
2006-06-01 04:52:39 51°17.223 2°43.862 12.8304 3.944351 33.556169 15.197007
2006-06-01 04:52:44 51°17.232 2°43.84 12.835 3.945721 33.567785 15.230717
2006-06-01 04:52:49 51°17.241 2°43.816 12.8334 3.945721 33.567785 15.230717
2006-06-01 04:52:53 51°17.248 2°43.797 12.8354 3.943192 33.543099 15.230717
2006-06-01 04:52:59 51°17.258 2°43.769 12.8353 3.943087 33.541408 15.230717
2006-06-01 04:53:04 51°17.267 2°43.747 12.835 3.942138 33.53172 15.230717
2006-06-01 04:53:09 51°17.276 2°43.724 12.8357 3.944667 33.55364 15.264426
2006-06-01 04:53:13 51°17.282 2°43.705 12.8383 3.938239 33.491288 15.230717
2006-06-01 04:53:19 51°17.293 2°43.678 12.8412 3.938239 33.491288 15.230717
2006-06-01 04:53:23 51°17.299 2°43.659 12.8449 3.943614 33.541572 15.230717
2006-06-01 04:53:29 51°17.31 2°43.631 12.8459 3.944035 33.54557 15.264426
2006-06-01 04:53:33 51°17.317 2°43.611 12.846 3.942981 33.534884 15.298136
2006-06-01 04:53:39 51°17.328 2°43.585 12.8479 3.942349 33.527506 15.298136
2006-06-01 04:53:44 51°17.335 2°43.562 12.8494 3.938344 33.48815 15.365554
2006-06-01 04:53:48 51°17.342 2°43.544 12.8513 3.938344 33.48815 15.365554
2006-06-01 04:53:54 51°17.352 2°43.515 12.8518 3.937185 33.47578 15.365554
2006-06-01 04:53:59 51°17.362 2°43.493 12.8524 3.937396 33.475711 15.399264
2006-06-01 04:54:04 51°17.371 2°43.468 12.8581 3.94119 33.508233 15.399264
2006-06-01 04:54:09 51°17.38 2°43.446 12.8519 3.942454 33.519534 15.432973
2006-06-01 04:54:13 51°17.387 2°43.428 12.8507 3.945405 33.545442 15.432973
2006-06-01 04:54:19 51°17.398 2°43.401 12.845 3.945405 33.545442 15.432973
2006-06-01 04:54:23 51°17.403 2°43.381 12.8424 3.940873 33.501099 15.466683
2006-06-01 04:54:29 51°17.414 2°43.355 12.8318 3.946248 33.550674 15.534101
2006-06-01 04:54:33 51°17.421 2°43.336 12.8286 3.945089 33.538303 15.60152
2006-06-01 04:54:39 51°17.432 2°43.31 12.8247 3.940979 33.497272 15.567811
2006-06-01 04:54:44 51°17.44 2°43.288 12.825 3.944772 33.533235 15.60152
2006-06-01 04:54:48 51°17.448 2°43.269 12.8197 3.944772 33.533235 15.60152
2006-06-01 04:54:53 51°17.457 2°43.246 12.8094 3.946459 33.551292 15.668939
2006-06-01 04:54:59 51°17.468 2°43.22 12.8103 3.948356 33.572733 15.736358
2006-06-01 04:55:04 51°17.477 2°43.197 12.7937 3.94962 33.590256 15.770067
2006-06-01 04:55:09 51°17.486 2°43.175 12.7868 3.944773 33.548423 15.871195
2006-06-01 04:55:13 51°17.494 2°43.158 12.7837 3.947618 33.580251 15.972324
2006-06-01 04:55:19 51°17.504 2°43.13 12.7672 3.947618 33.580251 15.972324
2006-06-01 04:55:23 51°17.512 2°43.112 12.7546 3.95215 33.627401 16.039742
2006-06-01 04:55:29 51°17.522 2°43.085 12.7585 3.95215 33.630864 16.073452
2006-06-01 04:55:33 51°17.529 2°43.066 12.7369 3.947829 33.596779 16.006033
2006-06-01 04:55:39 51°17.539 2°43.04 12.744 3.951939 33.642029 15.904905
2006-06-01 04:55:43 51°17.547 2°43.021 12.7374 3.956471 33.692002 15.871195
2006-06-01 04:55:49 51°17.557 2°42.995 12.7235 3.956471 33.692002 15.871195
2006-06-01 04:55:53 51°17.564 2°42.977 12.7304 3.952361 33.663374 15.803777
2006-06-01 04:55:58 51°17.573 2°42.955 12.7293 3.956471 33.710068 15.803777
2006-06-01 04:56:03 51°17.582 2°42.933 12.7133 3.955207 33.70987 15.770067
2006-06-01 04:56:09 51°17.594 2°42.906 12.7171 3.959212 33.756302 15.770067
2006-06-01 04:56:14 51°17.603 2°42.883 12.7077 3.957315 33.745226 15.803777
2006-06-01 04:56:19 51°17.611 2°42.859 12.7113 3.957315 33.745226 15.803777
2006-06-01 04:56:22 51°17.617 2°42.847 12.7109 3.961741 33.792215 15.770067
2006-06-01 04:56:29 51°17.629 2°42.812 12.7156 3.957631 33.758687 15.736358
2006-06-01 04:56:33 51°17.638 2°42.797 12.7025 3.9629 33.811623 15.668939
2006-06-01 04:56:38 51°17.647 2°42.775 12.7044 3.961847 33.807877 15.668939
2006-06-01 04:56:43 51°17.656 2°42.753 12.7035 3.961952 33.813071 15.63523
2006-06-01 04:56:49 51°17.667 2°42.726 12.6977 3.961952 33.813071 15.63523
2006-06-01 04:56:53 51°17.675 2°42.707 12.6976 3.961425 33.810849 15.60152
2006-06-01 04:56:59 51°17.685 2°42.682 12.6991 3.966378 33.858013 15.567811
2006-06-01 04:57:04 51°17.695 2°42.659 12.7042 3.967221 33.864643 15.534101
2006-06-01 04:57:09 51°17.703 2°42.635 12.6998 3.965957 33.855398 15.534101
2006-06-01 04:57:13 51°17.712 2°42.62 12.7047 3.964271 33.844936 15.500392
2006-06-01 04:57:19 51°17.723 2°42.59 12.6996 3.964271 33.844936 15.500392
2006-06-01 04:57:23 51°17.73 2°42.574 12.6924 3.966695 33.871523 15.534101
2006-06-01 04:57:29 51°17.741 2°42.546 12.6897 3.965641 33.864284 15.500392
2006-06-01 04:57:33 51°17.748 2°42.529 12.6915 3.964903 33.857256 15.466683
2006-06-01 04:57:39 51°17.758 2°42.5 12.6886 3.962479 33.833467 15.500392
2006-06-01 04:57:44 51°17.766 2°42.477 12.6899 3.96406 33.849225 15.466683
2006-06-01 04:57:49 51°17.775 2°42.453 12.6873 3.96406 33.849225 15.466683
2006-06-01 04:57:52 51°17.78 2°42.439 12.6952 3.962901 33.838182 15.432973
2006-06-01 04:57:57 51°17.788 2°42.416 12.705 3.963217 33.844692 15.432973
2006-06-01 04:58:03 51°17.799 2°42.388 12.7166 3.9668 33.881632 15.432973
2006-06-01 04:58:09 51°17.809 2°42.36 12.7247 3.960582 33.82379 15.399264
2006-06-01 04:58:13 51°17.816 2°42.342 12.7341 3.959634 33.817551 15.399264
2006-06-01 04:58:19 51°17.826 2°42.314 12.7467 3.959634 33.817551 15.399264
2006-06-01 04:58:24 51°17.835 2°42.29 12.7557 3.963533 33.855404 15.399264
2006-06-01 04:58:29 51°17.843 2°42.267 12.7671 3.967011 33.887144 15.500392
2006-06-01 04:58:33 51°17.85 2°42.249 12.7806 3.967432 33.886256 15.60152
2006-06-01 04:58:39 51°17.861 2°42.221 12.7906 3.964587 33.850745 15.60152
2006-06-01 04:58:43 51°17.867 2°42.203 12.7967 3.969118 33.886209 15.668939
2006-06-01 04:58:49 51°17.878 2°42.177 12.8042 3.969118 33.886209 15.668939
2006-06-01 04:58:53 51°17.885 2°42.159 12.8074 3.971121 33.895475 15.837486
2006-06-01 04:58:59 51°17.895 2°42.132 12.812 3.97776 33.947488 15.871195
2006-06-01 04:59:03 51°17.902 2°42.113 12.8148 3.977549 33.933568 15.938614
2006-06-01 04:59:09 51°17.913 2°42.085 12.8178 3.974387 33.893681 16.107161
2006-06-01 04:59:13 51°17.92 2°42.066 12.8225 3.977443 33.910866 16.140871
2006-06-01 04:59:17 51°17.926 2°42.047 12.8286 3.977443 33.910866 16.140871
2006-06-01 04:59:23 51°17.937 2°42.02 12.8341 3.983239 33.956903 16.208289
2006-06-01 04:59:28 51°17.946 2°41.997 12.8355 3.983345 33.950205 16.275708
2006-06-01 04:59:33 51°17.955 2°41.975 12.8408 3.982923 33.940598 16.343127
2006-06-01 04:59:39 51°17.965 2°41.946 12.8474 3.985136 33.957442 16.309418
2006-06-01 04:59:43 51°17.972 2°41.928 12.8473 3.986822 33.968575 16.343127
2006-06-01 04:59:49 51°17.982 2°41.901 12.8511 3.986822 33.968575 16.343127
2006-06-01 04:59:53 51°17.989 2°41.882 12.8573 3.984082 33.93833 16.343127
2006-06-01 04:59:56 51°17.994 2°41.868 12.8651 3.988192 33.9711 16.376836
2006-06-01 05:00:03 51°18.006 2°41.836 12.8607 3.987876 33.963198 16.444255
2006-06-01 05:00:09 51°18.018 2°41.808 12.8623 3.988508 33.965709 16.444255
2006-06-01 05:00:13 51°18.024 2°41.789 12.865 3.989984 33.975532 16.410546
2006-06-01 05:00:19 51°18.036 2°41.761 12.865 3.989984 33.975532 16.410546
2006-06-01 05:00:23 51°18.042 2°41.742 12.8684 3.988614 33.958319 16.410546
2006-06-01 05:00:29 51°18.053 2°41.715 12.8682 3.989351 33.961132 16.444255
2006-06-01 05:00:34 51°18.062 2°41.693 12.8756 3.994726 34.007994 16.444255
2006-06-01 05:00:39 51°18.071 2°41.669 12.8753 3.989984 33.95945 16.376836
2006-06-01 05:00:42 51°18.075 2°41.655 12.8694 3.993778 33.993386 16.376836
2006-06-01 05:00:48 51°18.086 2°41.627 12.8688 3.993778 33.993386 16.376836
2006-06-01 05:00:53 51°18.095 2°41.604 12.8716 3.992407 33.978276 16.376836
2006-06-01 05:00:59 51°18.105 2°41.577 12.8742 3.997045 34.020219 16.309418
2006-06-01 05:01:03 51°18.111 2°41.558 12.8777 3.997045 34.018119 16.309418
2006-06-01 05:01:08 51°18.12 2°41.535 12.8745 3.997677 34.021325 16.343127
2006-06-01 05:01:13 51°18.129 2°41.512 12.8803 3.99578 34.001211 16.309418
2006-06-01 05:01:19 51°18.139 2°41.484 12.8798 3.99578 34.001211 16.309418
2006-06-01 05:01:23 51°18.146 2°41.465 12.8753 3.997677 34.019925 16.241999
2006-06-01 05:01:29 51°18.157 2°41.438 12.8724 3.999574 34.039342 16.275708
2006-06-01 05:01:32 51°18.162 2°41.423 12.876 3.994831 33.992205 16.17458
2006-06-01 05:01:39 51°18.174 2°41.394 12.8751 3.997782 34.018127 16.208289
2006-06-01 05:01:43 51°18.181 2°41.375 12.8723 3.994831 33.990107 16.208289
2006-06-01 05:01:49 51°18.191 2°41.346 12.8692 3.994831 33.990107 16.208289
2006-06-01 05:01:53 51°18.199 2°41.329 12.8698 3.998204 34.020731 16.208289
2006-06-01 05:01:59 51°18.209 2°41.301 12.8738 3.992618 33.9663 16.17458
2006-06-01 05:02:04 51°18.217 2°41.279 12.871 3.992513 33.966697 16.208289
2006-06-01 05:02:09 51°18.226 2°41.256 12.8674 3.997571 34.016126 16.208289
2006-06-01 05:02:13 51°18.233 2°41.236 12.8639 3.996939 34.010821 16.17458
2006-06-01 05:02:19 51°18.244 2°41.21 12.8653 3.996939 34.010821 16.17458
2006-06-01 05:02:23 51°18.251 2°41.191 12.8701 3.994094 33.9852 16.208289
2006-06-01 05:02:29 51°18.262 2°41.163 12.8635 3.992934 33.974892 16.140871
2006-06-01 05:02:33 51°18.269 2°41.144 12.8655 3.992934 33.973494 16.208289
2006-06-01 05:02:39 51°18.279 2°41.118 12.8665 3.998098 34.024629 16.17458
2006-06-01 05:02:43 51°18.286 2°41.1 12.8647 3.993672 33.983994 16.17458
2006-06-01 05:02:48 51°18.294 2°41.076 12.8727 3.993672 33.983994 16.17458
2006-06-01 05:02:53 51°18.303 2°41.055 12.8632 3.999469 34.040442 16.208289
2006-06-01 05:02:59 51°18.313 2°41.026 12.8657 3.995253 33.999705 16.208289
2006-06-01 05:03:03 51°18.321 2°41.009 12.8645 3.997888 34.026827 16.241999
2006-06-01 05:03:08 51°18.329 2°40.984 12.8697 3.996834 34.016117 16.208289
2006-06-01 05:03:13 51°18.339 2°40.962 12.8655 3.998836 34.035136 16.241999
2006-06-01 05:03:19 51°18.349 2°40.935 12.8665 3.998836 34.035136 16.241999
2006-06-01 05:03:23 51°18.356 2°40.916 12.8633 3.999258 34.03914 16.208289
2006-06-01 05:03:29 51°18.366 2°40.889 12.8631 3.999363 34.040842 16.208289
2006-06-01 05:03:33 51°18.373 2°40.871 12.8625 3.99715 34.01982 16.241999
2006-06-01 05:03:39 51°18.384 2°40.844 12.8607 3.995674 34.007206 16.241999
2006-06-01 05:03:44 51°18.393 2°40.821 12.8613 3.997361 34.022522 16.241999
2006-06-01 05:03:49 51°18.402 2°40.798 12.863 3.997361 34.022522 16.241999
2006-06-01 05:03:53 51°18.409 2°40.78 12.8595 3.993988 33.989094 16.309418
2006-06-01 05:03:59 51°18.419 2°40.754 12.8593 4.000522 34.052554 16.241999
2006-06-01 05:04:03 51°18.426 2°40.734 12.8629 3.995253 34.003203 16.343127
2006-06-01 05:04:09 51°18.436 2°40.707 12.8562 3.998836 34.037937 16.309418
2006-06-01 05:04:13 51°18.443 2°40.688 12.8618 3.999469 34.043244 16.309418
2006-06-01 05:04:17 51°18.45 2°40.67 12.8588 3.999469 34.043244 16.309418
2006-06-01 05:04:23 51°18.461 2°40.642 12.8543 3.99441 33.995895 16.309418
2006-06-01 05:04:28 51°18.47 2°40.62 12.8517 3.995991 34.010909 16.309418
2006-06-01 05:04:33 51°18.48 2°40.597 12.8582 3.995675 34.009306 16.343127
2006-06-01 05:04:37 51°18.485 2°40.577 12.8673 3.999152 34.042342 16.309418
2006-06-01 05:04:43 51°18.497 2°40.551 12.8541 3.998731 34.037637 16.343127
2006-06-01 05:04:49 51°18.506 2°40.524 12.8603 3.998731 34.037637 16.343127
2006-06-01 05:04:53 51°18.514 2°40.506 12.8432 3.997466 34.026324 16.309418
2006-06-01 05:04:59 51°18.524 2°40.479 12.8459 3.999152 34.043743 16.309418
2006-06-01 05:05:03 51°18.531 2°40.461 12.8488 4.00263 34.078188 16.309418
2006-06-01 05:05:08 51°18.54 2°40.438 12.8362 3.998942 34.043842 16.376836
2006-06-01 05:05:13 51°18.549 2°40.418 12.836 3.999679 34.050851 16.343127
2006-06-01 05:05:19 51°18.56 2°40.39 12.8321 3.999679 34.050851 16.343127
2006-06-01 05:05:23 51°18.567 2°40.372 12.83 3.999679 34.05015 16.343127
2006-06-01 05:05:29 51°18.578 2°40.347 12.8307 3.999153 34.048648 16.376836
2006-06-01 05:05:33 51°18.585 2°40.329 12.8215 3.99968 34.058561 16.376836
2006-06-01 05:05:39 51°18.597 2°40.304 12.8142 4.001893 34.081699 16.309418
2006-06-01 05:05:43 51°18.603 2°40.287 12.8192 4.002104 34.085106 16.309418
2006-06-01 05:05:49 51°18.614 2°40.259 12.8018 4.002104 34.085106 16.309418
2006-06-01 05:05:53 51°18.621 2°40.242 12.7944 4.002736 34.095329 16.241999
2006-06-01 05:05:59 51°18.632 2°40.214 12.7938 4.002631 34.096433 16.275708
2006-06-01 05:06:04 51°18.641 2°40.192 12.7886 4.004633 34.120389 16.17458
2006-06-01 05:06:09 51°18.65 2°40.17 12.7913 3.998731 34.067782 16.208289
2006-06-01 05:06:13 51°18.658 2°40.152 12.7845 4.004106 34.125219 16.140871
2006-06-01 05:06:17 51°18.665 2°40.134 12.7959 4.004106 34.125219 16.140871
2006-06-01 05:06:23 51°18.676 2°40.108 12.7858 4.000945 34.100768 16.140871
2006-06-01 05:06:28 51°18.686 2°40.085 12.7801 4.00242 34.121131 16.073452
2006-06-01 05:06:33 51°18.695 2°40.063 12.7833 4.000207 34.104995 16.073452
2006-06-01 05:06:39 51°18.706 2°40.034 12.7814 3.994411 34.05406 16.107161
2006-06-01 05:06:43 51°18.714 2°40.017 12.7787 3.996202 34.076024 16.073452
2006-06-01 05:06:49 51°18.725 2°39.991 12.7827 3.996202 34.076024 16.073452
2006-06-01 05:06:53 51°18.732 2°39.973 12.7797 3.994622 34.062386 16.039742
2006-06-01 05:06:56 51°18.737 2°39.959 12.7789 3.989036 34.00924 16.006033
2006-06-01 05:07:03 51°18.75 2°39.926 12.7789 3.990933 34.030797 16.107161
2006-06-01 05:07:09 51°18.76 2°39.9 12.7777 3.991565 34.038218 16.039742
2006-06-01 05:07:13 51°18.768 2°39.882 12.7718 3.990511 34.028891 16.073452
2006-06-01 05:07:19 51°18.779 2°39.855 12.7654 3.990511 34.028891 16.073452
2006-06-01 05:07:23 51°18.786 2°39.837 12.7667 3.991355 34.036914 16.073452
2006-06-01 05:07:28 51°18.797 2°39.815 12.7627 3.990406 34.02859 16.073452
2006-06-01 05:07:32 51°18.805 2°39.797 12.76 3.990933 34.036413 16.073452
2006-06-01 05:07:39 51°18.818 2°39.766 12.7595 3.988298 34.012041 16.073452
2006-06-01 05:07:43 51°18.827 2°39.749 12.7621 3.989668 34.025079 16.073452
2006-06-01 05:07:48 51°18.836 2°39.727 12.7616 3.989668 34.025079 16.073452
2006-06-01 05:07:52 51°18.845 2°39.709 12.756 3.993673 34.066006 16.039742
2006-06-01 05:07:59 51°18.858 2°39.678 12.7556 3.994306 34.076946 16.073452
2006-06-01 05:08:03 51°18.865 2°39.66 12.7525 3.990406 34.042634 16.039742
2006-06-01 05:08:09 51°18.878 2°39.632 12.7478 3.987771 34.018254 16.073452
2006-06-01 05:08:13 51°18.884 2°39.615 12.7479 3.992725 34.068222 16.073452
2006-06-01 05:08:19 51°18.897 2°39.587 12.7452 3.992725 34.068222 16.073452
2006-06-01 05:08:24 51°18.905 2°39.564 12.7419 3.993041 34.071233 16.073452
2006-06-01 05:08:29 51°18.915 2°39.541 12.7362 3.986612 34.012132 16.073452
2006-06-01 05:08:33 51°18.922 2°39.521 12.729 3.991144 34.057387 16.039742
2006-06-01 05:08:39 51°18.933 2°39.495 12.7236 3.990196 34.049761 16.107161
2006-06-01 05:08:43 51°18.94 2°39.476 12.7261 3.989142 34.041131 16.073452
2006-06-01 05:08:49 51°18.952 2°39.45 12.7243 3.989142 34.041131 16.073452
2006-06-01 05:08:53 51°18.96 2°39.432 12.7256 3.989563 34.04866 16.039742
2006-06-01 05:08:59 51°18.971 2°39.405 12.727 3.990196 34.059604 16.006033
2006-06-01 05:09:03 51°18.979 2°39.387 12.7256 3.986402 34.026981 15.972324
2006-06-01 05:09:09 51°18.99 2°39.358 12.7273 3.988404 34.050273 15.972324
2006-06-01 05:09:13 51°18.998 2°39.34 12.7182 3.991882 34.088336 15.972324
2006-06-01 05:09:19 51°19.008 2°39.311 12.7224 3.991882 34.088336 15.972324
2006-06-01 05:09:23 51°19.016 2°39.294 12.7193 3.992515 34.096475 15.972324
2006-06-01 05:09:29 51°19.028 2°39.266 12.7206 3.995676 34.128725 15.972324
2006-06-01 05:09:32 51°19.034 2°39.253 12.7218 3.999786 34.167908 15.938614
2006-06-01 05:09:39 51°19.047 2°39.221 12.7264 4.001789 34.189119 15.904905
2006-06-01 05:09:43 51°19.054 2°39.202 12.7296 3.997784 34.15164 15.871195
2006-06-01 05:09:48 51°19.064 2°39.178 12.7259 3.997784 34.15164 15.871195
2006-06-01 05:09:52 51°19.071 2°39.159 12.7294 3.999365 34.167418 15.904905
2006-06-01 05:09:59 51°19.084 2°39.127 12.7287 4.005899 34.229729 15.904905
2006-06-01 05:10:03 51°19.091 2°39.109 12.738 4.004213 34.21294 15.837486
2006-06-01 05:10:08 51°19.1 2°39.085 12.7445 4.004529 34.216662 15.904905
2006-06-01 05:10:13 51°19.109 2°39.065 12.7389 4.003897 34.210632 15.871195
2006-06-01 05:10:19 51°19.12 2°39.035 12.7466 4.003897 34.210632 15.871195
2006-06-01 05:10:24 51°19.13 2°39.012 12.7423 4.007691 34.244694 15.871195
2006-06-01 05:10:29 51°19.139 2°38.989 12.7454 4.008112 34.248007 15.904905
2006-06-01 05:10:33 51°19.147 2°38.971 12.7478 4.012328 34.286092 15.871195
2006-06-01 05:10:39 51°19.159 2°38.943 12.7444 4.011906 34.279237 15.938614
2006-06-01 05:10:44 51°19.168 2°38.92 12.7466 4.011801 34.273276 16.006033
2006-06-01 05:10:49 51°19.177 2°38.897 12.7477 4.011801 34.273276 16.006033
2006-06-01 05:10:53 51°19.185 2°38.878 12.7469 4.012223 34.27588 16.006033
2006-06-01 05:10:56 51°19.19 2°38.863 12.7471 4.012117 34.272043 16.039742
2006-06-01 05:11:04 51°19.205 2°38.827 12.7438 4.01022 34.253248 16.073452
2006-06-01 05:11:09 51°19.214 2°38.802 12.7385 4.008218 34.232744 16.073452
2006-06-01 05:11:13 51°19.222 2°38.784 12.7394 4.010747 34.255443 16.107161
2006-06-01 05:11:17 51°19.229 2°38.766 12.7368 4.010747 34.255443 16.107161
2006-06-01 05:11:24 51°19.241 2°38.733 12.7392 4.012433 34.270811 16.107161
2006-06-01 05:11:28 51°19.249 2°38.714 12.7338 4.013066 34.27684 16.073452
2006-06-01 05:11:33 51°19.258 2°38.69 12.7312 4.012433 34.271519 16.006033
2006-06-01 05:11:39 51°19.269 2°38.662 12.7297 4.012012 34.269623 16.006033
2006-06-01 05:11:43 51°19.276 2°38.644 12.7374 4.007691 34.230548 16.073452
2006-06-01 05:11:49 51°19.287 2°38.616 12.729 4.007691 34.230548 16.073452
2006-06-01 05:11:53 51°19.295 2°38.598 12.7299 4.010852 34.262815 15.972324
2006-06-01 05:11:59 51°19.306 2°38.57 12.7291 4.012644 34.280608 16.006033
2006-06-01 05:12:03 51°19.314 2°38.551 12.7301 4.009799 34.253474 16.006033
2006-06-01 05:12:08 51°19.323 2°38.529 12.7291 4.012433 34.280722 16.039742
2006-06-01 05:12:13 51°19.332 2°38.505 12.7252 4.009166 34.250982 16.006033
2006-06-01 05:12:19 51°19.343 2°38.475 12.7164 4.009166 34.250982 16.006033
2006-06-01 05:12:23 51°19.351 2°38.458 12.7122 4.011696 34.276519 16.039742
2006-06-01 05:12:29 51°19.362 2°38.43 12.7084 4.016228 34.321162 16.039742
2006-06-01 05:12:32 51°19.368 2°38.417 12.7081 4.016228 34.322581 16.039742
2006-06-01 05:12:39 51°19.38 2°38.384 12.699 4.01296 34.292123 15.972324
2006-06-01 05:12:42 51°19.387 2°38.37 12.7021 4.01549 34.316252 15.972324
2006-06-01 05:12:49 51°19.4 2°38.337 12.6883 4.01549 34.316252 15.972324
2006-06-01 05:12:53 51°19.407 2°38.319 12.6848 4.016649 34.32944 15.938614
2006-06-01 05:12:58 51°19.416 2°38.297 12.6816 4.016649 34.332987 15.904905
2006-06-01 05:13:04 51°19.428 2°38.267 12.6743 4.015068 34.322868 15.871195
2006-06-01 05:13:09 51°19.437 2°38.245 12.6766 4.017282 34.348959 15.837486
2006-06-01 05:13:13 51°19.444 2°38.227 12.6694 4.017809 34.35683 15.837486
2006-06-01 05:13:16 51°19.45 2°38.214 12.666 4.017809 34.35683 15.837486
2006-06-01 05:13:24 51°19.465 2°38.176 12.6574 4.012645 34.313923 15.803777
2006-06-01 05:13:29 51°19.474 2°38.153 12.6528 4.018652 34.377672 15.770067
2006-06-01 05:13:33 51°19.482 2°38.134 12.6546 4.015807 34.354052 15.736358
2006-06-01 05:13:37 51°19.49 2°38.116 12.646 4.012329 34.325812 15.736358
2006-06-01 05:13:44 51°19.502 2°38.083 12.6435 4.012961 34.336113 15.668939
2006-06-01 05:13:49 51°19.511 2°38.061 12.6393 4.012961 34.336113 15.668939
2006-06-01 05:13:53 51°19.519 2°38.043 12.6371 4.012118 34.331612 15.702648
2006-06-01 05:13:59 51°19.529 2°38.015 12.6388 4.015912 34.373547 15.668939
2006-06-01 05:14:03 51°19.538 2°37.997 12.6276 4.018969 34.40845 15.63523
2006-06-01 05:14:09 51°19.548 2°37.97 12.6213 4.017809 34.400931 15.63523
2006-06-01 05:14:13 51°19.556 2°37.951 12.6158 4.02055 34.432115 15.668939
2006-06-01 05:14:19 51°19.567 2°37.925 12.6067 4.02055 34.432115 15.668939
2006-06-01 05:14:23 51°19.574 2°37.908 12.6081 4.01918 34.424006 15.63523
2006-06-01 05:14:29 51°19.583 2°37.885 12.6072 4.017915 34.416191 15.702648
2006-06-01 05:14:32 51°19.587 2°37.874 12.5996 4.016861 34.408251 15.63523
2006-06-01 05:14:39 51°19.598 2°37.851 12.5936 4.017494 34.42143 15.63523
2006-06-01 05:14:43 51°19.603 2°37.838 12.5909 4.020866 34.460117 15.702648
2006-06-01 05:14:48 51°19.609 2°37.824 12.5892 4.020866 34.460117 15.702648
2006-06-01 05:14:53 51°19.615 2°37.811 12.5862 4.019075 34.447259 15.702648
2006-06-01 05:14:59 51°19.623 2°37.796 12.5847 4.017072 34.431668 15.736358
2006-06-01 05:15:04 51°19.629 2°37.784 12.5879 4.021183 34.476005 15.770067
2006-06-01 05:15:09 51°19.633 2°37.773 12.5851 4.02055 34.473526 15.803777
2006-06-01 05:15:13 51°19.638 2°37.766 12.5779 4.017389 34.449692 15.803777
2006-06-01 05:15:18 51°19.643 2°37.755 12.5762 4.017389 34.449692 15.803777
2006-06-01 05:15:24 51°19.648 2°37.743 12.5808 4.018759 34.465668 15.803777
2006-06-01 05:15:29 51°19.653 2°37.734 12.5717 4.021077 34.491446 15.837486
2006-06-01 05:15:33 51°19.657 2°37.726 12.5708 4.018864 34.471683 15.837486
2006-06-01 05:15:39 51°19.662 2°37.716 12.5705 4.018759 34.471389 15.837486
2006-06-01 05:15:43 51°19.666 2°37.709 12.5752 4.02034 34.490106 15.837486
2006-06-01 05:15:49 51°19.671 2°37.701 12.5758 4.02034 34.490106 15.837486
2006-06-01 05:15:53 51°19.674 2°37.694 12.5728 4.018864 34.480983 15.904905
2006-06-01 05:15:59 51°19.68 2°37.684 12.5781 4.018548 34.477955 15.837486
2006-06-01 05:16:04 51°19.683 2°37.676 12.5726 4.018443 34.479092 15.904905
2006-06-01 05:16:09 51°19.687 2°37.668 12.5714 4.01897 34.487003 15.904905
2006-06-01 05:16:13 51°19.69 2°37.662 12.5732 4.01897 34.487719 15.938614
2006-06-01 05:16:19 51°19.694 2°37.654 12.5758 4.01897 34.487719 15.938614
2006-06-01 05:16:23 51°19.697 2°37.647 12.5747 4.020234 34.499119 15.938614
2006-06-01 05:16:28 51°19.7 2°37.641 12.5798 4.017283 34.470134 15.972324
2006-06-01 05:16:33 51°19.705 2°37.634 12.5769 4.016124 34.459029 15.972324
2006-06-01 05:16:39 51°19.708 2°37.626 12.5782 4.019602 34.495209 16.006033
2006-06-01 05:16:43 51°19.711 2°37.62 12.5729 4.019391 34.49319 16.039742
2006-06-01 05:16:48 51°19.715 2°37.614 12.5735 4.019391 34.49319 16.039742
2006-06-01 05:16:53 51°19.718 2°37.607 12.5769 4.019391 34.49319 16.006033
2006-06-01 05:16:59 51°19.723 2°37.599 12.5742 4.017916 34.477622 16.006033
2006-06-01 05:17:03 51°19.725 2°37.593 12.5713 4.019181 34.486875 16.039742
2006-06-01 05:17:09 51°19.729 2°37.586 12.5726 4.019391 34.488894 16.107161
2006-06-01 05:17:13 51°19.733 2°37.582 12.5717 4.019813 34.493649 16.107161
2006-06-01 05:17:19 51°19.737 2°37.574 12.5737 4.019813 34.493649 16.107161
2006-06-01 05:17:24 51°19.74 2°37.567 12.563 4.01897 34.487003 16.107161
2006-06-01 05:17:29 51°19.744 2°37.562 12.5597 4.016967 34.46782 16.073452
2006-06-01 05:17:33 51°19.746 2°37.556 12.5649 4.021605 34.513679 16.073452
2006-06-01 05:17:39 51°19.751 2°37.551 12.5593 4.014859 34.449775 16.073452
2006-06-01 05:17:43 51°19.754 2°37.546 12.5572 4.018759 34.486416 16.073452
2006-06-01 05:17:49 51°19.758 2°37.54 12.5554 4.018759 34.486416 16.073452
2006-06-01 05:17:53 51°19.761 2°37.536 12.5551 4.017916 34.479054 16.073452
2006-06-01 05:17:59 51°19.764 2°37.53 12.558 4.015808 34.459577 16.107161
2006-06-01 05:18:04 51°19.768 2°37.525 12.5602 4.01507 34.456086 16.140871
2006-06-01 05:18:09 51°19.771 2°37.521 12.5551 4.015808 34.4653 16.140871
2006-06-01 05:18:13 51°19.774 2°37.518 12.5448 4.020972 34.517652 16.107161
2006-06-01 05:18:18 51°19.776 2°37.514 12.5484 4.020972 34.517652 16.107161
2006-06-01 05:18:23 51°19.78 2°37.51 12.5451 4.016862 34.483275 16.17458
2006-06-01 05:18:28 51°19.783 2°37.506 12.5449 4.01486 34.466232 16.107161
2006-06-01 05:18:33 51°19.786 2°37.502 12.5393 4.020551 34.520064 16.107161
2006-06-01 05:18:38 51°19.789 2°37.498 12.5387 4.018865 34.5039 16.107161
2006-06-01 05:18:43 51°19.793 2°37.494 12.5383 4.020762 34.523518 16.140871
2006-06-01 05:18:48 51°19.795 2°37.491 12.5379 4.020762 34.523518 16.140871
2006-06-01 05:18:53 51°19.798 2°37.488 12.5369 4.014438 34.465771 16.107161
2006-06-01 05:18:59 51°19.801 2°37.483 12.5306 4.021605 34.53734 16.107161
2006-06-01 05:19:03 51°19.803 2°37.48 12.5363 4.016968 34.495748 16.107161
2006-06-01 05:19:08 51°19.806 2°37.476 12.539 4.019813 34.524465 16.107161
2006-06-01 05:19:13 51°19.808 2°37.473 12.5329 4.020973 34.537017 16.140871
2006-06-01 05:19:19 51°19.811 2°37.469 12.533 4.020973 34.537017 16.140871
2006-06-01 05:19:23 51°19.814 2°37.466 12.5256 4.020762 34.535714 16.107161
2006-06-01 05:19:28 51°19.816 2°37.463 12.5241 4.017811 34.509568 16.107161
2006-06-01 05:19:33 51°19.819 2°37.459 12.5244 4.020551 34.537998 16.073452
2006-06-01 05:19:37 51°19.821 2°37.457 12.522 4.018654 34.519805 16.107161
2006-06-01 05:19:44 51°19.824 2°37.452 12.5197 4.018865 34.522544 16.140871
2006-06-01 05:19:49 51°19.827 2°37.449 12.5141 4.018865 34.522544 16.140871
2006-06-01 05:19:53 51°19.828 2°37.446 12.5178 4.016335 34.499721 16.107161
2006-06-01 05:19:58 51°19.831 2°37.443 12.5237 4.017495 34.514426 16.107161
2006-06-01 05:20:04 51°19.833 2°37.438 12.5114 4.017179 34.514263 16.073452
2006-06-01 05:20:09 51°19.836 2°37.435 12.5121 4.0176 34.519024 16.107161
2006-06-01 05:20:13 51°19.837 2°37.433 12.5106 4.017073 34.51684 16.073452
2006-06-01 05:20:19 51°19.84 2°37.429 12.5088 4.017073 34.51684 16.073452
2006-06-01 05:20:24 51°19.842 2°37.425 12.5087 4.019181 34.537779 16.107161
2006-06-01 05:20:28 51°19.844 2°37.423 12.5093 4.019814 34.546719 16.073452
2006-06-01 05:20:34 51°19.846 2°37.419 12.5041 4.018338 34.531126 16.073452
2006-06-01 05:20:38 51°19.847 2°37.416 12.5044 4.020868 34.558988 16.073452
2006-06-01 05:20:44 51°19.849 2°37.412 12.5051 4.019498 34.546559 16.039742
2006-06-01 05:20:49 51°19.851 2°37.409 12.5071 4.019498 34.546559 16.039742